<?xml version="1.0" encoding="utf-8"?>
<gpx xmlns:xsi="http://www.w3.org/2001/XMLSchema-instance" xmlns:xsd="http://www.w3.org/2001/XMLSchema" version="1.1" creator="Shapelink.com" xmlns="http://www.topografix.com/GPX/1/1" xmlns:gpxtpx="http://www.garmin.com/xmlschemas/TrackPointExtension/v1">
  <metadata>
    <name>Andet 9.37 km, 2017-11-04</name>
    <desc></desc>
    <author><name>Bengt-Åke Forslund</name></author> 
    <time>2017-11-04T09:17:17Z</time>
  </metadata>
  <trk>
    <name>Andet 9.37 km, 2017-11-04</name>
    <trkseg>
      <trkpt lat="59.8525758" lon="17.6085585">
        <ele>19.8444</ele>
        <time>2017-11-04T09:17:17Z</time>
      </trkpt>
      <trkpt lat="59.8526234" lon="17.6086464">
        <ele>20.325</ele>
        <time>2017-11-04T09:17:22Z</time>
      </trkpt>
      <trkpt lat="59.8527115" lon="17.6086785">
        <ele>20.8057</ele>
        <time>2017-11-04T09:17:27Z</time>
      </trkpt>
      <trkpt lat="59.8527343" lon="17.6087131">
        <ele>19.8444</ele>
        <time>2017-11-04T09:17:29Z</time>
      </trkpt>
      <trkpt lat="59.8527856" lon="17.6087567">
        <ele>20.325</ele>
        <time>2017-11-04T09:17:33Z</time>
      </trkpt>
      <trkpt lat="59.8528251" lon="17.6088163">
        <ele>21.2864</ele>
        <time>2017-11-04T09:17:37Z</time>
      </trkpt>
      <trkpt lat="59.852868" lon="17.6088622">
        <ele>20.8057</ele>
        <time>2017-11-04T09:17:41Z</time>
      </trkpt>
      <trkpt lat="59.8529296" lon="17.6089052">
        <ele>23.209</ele>
        <time>2017-11-04T09:17:46Z</time>
      </trkpt>
      <trkpt lat="59.8529727" lon="17.6089285">
        <ele>24.1703</ele>
        <time>2017-11-04T09:17:50Z</time>
      </trkpt>
      <trkpt lat="59.8530457" lon="17.6089815">
        <ele>24.651</ele>
        <time>2017-11-04T09:17:57Z</time>
      </trkpt>
      <trkpt lat="59.853097" lon="17.6089946">
        <ele>25.1317</ele>
        <time>2017-11-04T09:18:01Z</time>
      </trkpt>
      <trkpt lat="59.8531638" lon="17.6090054">
        <ele>28.4962</ele>
        <time>2017-11-04T09:18:05Z</time>
      </trkpt>
      <trkpt lat="59.8532456" lon="17.6090266">
        <ele>32.8223</ele>
        <time>2017-11-04T09:18:11Z</time>
      </trkpt>
      <trkpt lat="59.8533425" lon="17.6090484">
        <ele>32.3416</ele>
        <time>2017-11-04T09:18:17Z</time>
      </trkpt>
      <trkpt lat="59.8534316" lon="17.6090389">
        <ele>34.7449</ele>
        <time>2017-11-04T09:18:21Z</time>
      </trkpt>
      <trkpt lat="59.8534153" lon="17.6090437">
        <ele>32.8223</ele>
        <time>2017-11-04T09:18:23Z</time>
      </trkpt>
      <trkpt lat="59.8534011" lon="17.6090598">
        <ele>31.3801</ele>
        <time>2017-11-04T09:18:27Z</time>
      </trkpt>
      <trkpt lat="59.8534109" lon="17.6090614">
        <ele>31.8607</ele>
        <time>2017-11-04T09:18:32Z</time>
      </trkpt>
      <trkpt lat="59.853454" lon="17.6090866">
        <ele>31.3801</ele>
        <time>2017-11-04T09:18:36Z</time>
      </trkpt>
      <trkpt lat="59.8534916" lon="17.6091022">
        <ele>32.3416</ele>
        <time>2017-11-04T09:18:40Z</time>
      </trkpt>
      <trkpt lat="59.8535626" lon="17.6091264">
        <ele>30.8995</ele>
        <time>2017-11-04T09:18:47Z</time>
      </trkpt>
      <trkpt lat="59.8536085" lon="17.6091406">
        <ele>29.9381</ele>
        <time>2017-11-04T09:18:52Z</time>
      </trkpt>
      <trkpt lat="59.8536388" lon="17.6091409">
        <ele>29.9381</ele>
        <time>2017-11-04T09:18:54Z</time>
      </trkpt>
      <trkpt lat="59.8536994" lon="17.6091691">
        <ele>28.4962</ele>
        <time>2017-11-04T09:19:00Z</time>
      </trkpt>
      <trkpt lat="59.8537209" lon="17.6091706">
        <ele>29.4575</ele>
        <time>2017-11-04T09:19:02Z</time>
      </trkpt>
      <trkpt lat="59.8538448" lon="17.6091437">
        <ele>26.5736</ele>
        <time>2017-11-04T09:19:11Z</time>
      </trkpt>
      <trkpt lat="59.8539285" lon="17.6090789">
        <ele>23.6896</ele>
        <time>2017-11-04T09:19:17Z</time>
      </trkpt>
      <trkpt lat="59.8540112" lon="17.6089871">
        <ele>18.8831</ele>
        <time>2017-11-04T09:19:24Z</time>
      </trkpt>
      <trkpt lat="59.854133" lon="17.6089076">
        <ele>17.4412</ele>
        <time>2017-11-04T09:19:32Z</time>
      </trkpt>
      <trkpt lat="59.8541832" lon="17.608852">
        <ele>17.4412</ele>
        <time>2017-11-04T09:19:36Z</time>
      </trkpt>
      <trkpt lat="59.8542776" lon="17.608806">
        <ele>19.3638</ele>
        <time>2017-11-04T09:19:43Z</time>
      </trkpt>
      <trkpt lat="59.8543422" lon="17.6089068">
        <ele>19.3638</ele>
        <time>2017-11-04T09:19:49Z</time>
      </trkpt>
      <trkpt lat="59.8544741" lon="17.6090062">
        <ele>25.6123</ele>
        <time>2017-11-04T09:19:57Z</time>
      </trkpt>
      <trkpt lat="59.8545317" lon="17.6091739">
        <ele>28.9769</ele>
        <time>2017-11-04T09:20:04Z</time>
      </trkpt>
      <trkpt lat="59.8545773" lon="17.6093457">
        <ele>30.4188</ele>
        <time>2017-11-04T09:20:11Z</time>
      </trkpt>
      <trkpt lat="59.8546132" lon="17.6095343">
        <ele>34.7449</ele>
        <time>2017-11-04T09:20:18Z</time>
      </trkpt>
      <trkpt lat="59.8546495" lon="17.609709">
        <ele>32.3416</ele>
        <time>2017-11-04T09:20:25Z</time>
      </trkpt>
      <trkpt lat="59.8546945" lon="17.6099547">
        <ele>30.4188</ele>
        <time>2017-11-04T09:20:35Z</time>
      </trkpt>
      <trkpt lat="59.8547282" lon="17.610189">
        <ele>28.0155</ele>
        <time>2017-11-04T09:20:44Z</time>
      </trkpt>
      <trkpt lat="59.8547459" lon="17.6104227">
        <ele>27.0543</ele>
        <time>2017-11-04T09:20:53Z</time>
      </trkpt>
      <trkpt lat="59.8547592" lon="17.6106134">
        <ele>25.6123</ele>
        <time>2017-11-04T09:21:00Z</time>
      </trkpt>
      <trkpt lat="59.8547996" lon="17.610811">
        <ele>26.5736</ele>
        <time>2017-11-04T09:21:08Z</time>
      </trkpt>
      <trkpt lat="59.8548301" lon="17.6109634">
        <ele>26.0929</ele>
        <time>2017-11-04T09:21:14Z</time>
      </trkpt>
      <trkpt lat="59.8548473" lon="17.6110794">
        <ele>25.1317</ele>
        <time>2017-11-04T09:21:19Z</time>
      </trkpt>
      <trkpt lat="59.8548784" lon="17.6112774">
        <ele>23.6896</ele>
        <time>2017-11-04T09:21:27Z</time>
      </trkpt>
      <trkpt lat="59.8549074" lon="17.611481">
        <ele>20.8057</ele>
        <time>2017-11-04T09:21:35Z</time>
      </trkpt>
      <trkpt lat="59.8549199" lon="17.6116453">
        <ele>20.8057</ele>
        <time>2017-11-04T09:21:42Z</time>
      </trkpt>
      <trkpt lat="59.8549577" lon="17.6117938">
        <ele>21.2864</ele>
        <time>2017-11-04T09:21:49Z</time>
      </trkpt>
      <trkpt lat="59.8550051" lon="17.6120031">
        <ele>22.2476</ele>
        <time>2017-11-04T09:21:58Z</time>
      </trkpt>
      <trkpt lat="59.8550437" lon="17.6122236">
        <ele>22.7283</ele>
        <time>2017-11-04T09:22:07Z</time>
      </trkpt>
      <trkpt lat="59.8550944" lon="17.6124672">
        <ele>23.6896</ele>
        <time>2017-11-04T09:22:17Z</time>
      </trkpt>
      <trkpt lat="59.8551206" lon="17.6126711">
        <ele>22.2476</ele>
        <time>2017-11-04T09:22:25Z</time>
      </trkpt>
      <trkpt lat="59.8551326" lon="17.6128693">
        <ele>20.8057</ele>
        <time>2017-11-04T09:22:33Z</time>
      </trkpt>
      <trkpt lat="59.8551543" lon="17.6130365">
        <ele>19.8444</ele>
        <time>2017-11-04T09:22:39Z</time>
      </trkpt>
      <trkpt lat="59.8551918" lon="17.613214">
        <ele>20.8057</ele>
        <time>2017-11-04T09:22:46Z</time>
      </trkpt>
      <trkpt lat="59.8551994" lon="17.6132602">
        <ele>20.8057</ele>
        <time>2017-11-04T09:22:48Z</time>
      </trkpt>
      <trkpt lat="59.8551533" lon="17.6133161">
        <ele>19.3638</ele>
        <time>2017-11-04T09:22:52Z</time>
      </trkpt>
      <trkpt lat="59.8550918" lon="17.613384">
        <ele>16.4797</ele>
        <time>2017-11-04T09:22:57Z</time>
      </trkpt>
      <trkpt lat="59.855011" lon="17.6134234">
        <ele>16.4797</ele>
        <time>2017-11-04T09:23:03Z</time>
      </trkpt>
      <trkpt lat="59.8549352" lon="17.613481">
        <ele>16.9604</ele>
        <time>2017-11-04T09:23:09Z</time>
      </trkpt>
      <trkpt lat="59.8548494" lon="17.6136232">
        <ele>18.8831</ele>
        <time>2017-11-04T09:23:17Z</time>
      </trkpt>
      <trkpt lat="59.8547577" lon="17.613741">
        <ele>16.9604</ele>
        <time>2017-11-04T09:23:25Z</time>
      </trkpt>
      <trkpt lat="59.8546632" lon="17.6138297">
        <ele>17.9218</ele>
        <time>2017-11-04T09:23:32Z</time>
      </trkpt>
      <trkpt lat="59.8545933" lon="17.6139283">
        <ele>17.4412</ele>
        <time>2017-11-04T09:23:38Z</time>
      </trkpt>
      <trkpt lat="59.8545142" lon="17.6140285">
        <ele>17.4412</ele>
        <time>2017-11-04T09:23:45Z</time>
      </trkpt>
      <trkpt lat="59.8544188" lon="17.6141307">
        <ele>17.9218</ele>
        <time>2017-11-04T09:23:53Z</time>
      </trkpt>
      <trkpt lat="59.8543386" lon="17.614234">
        <ele>19.3638</ele>
        <time>2017-11-04T09:24:00Z</time>
      </trkpt>
      <trkpt lat="59.8542603" lon="17.6143381">
        <ele>19.3638</ele>
        <time>2017-11-04T09:24:07Z</time>
      </trkpt>
      <trkpt lat="59.8541749" lon="17.6144413">
        <ele>21.2864</ele>
        <time>2017-11-04T09:24:14Z</time>
      </trkpt>
      <trkpt lat="59.8540708" lon="17.614564">
        <ele>22.7283</ele>
        <time>2017-11-04T09:24:22Z</time>
      </trkpt>
      <trkpt lat="59.8539863" lon="17.61466">
        <ele>20.8057</ele>
        <time>2017-11-04T09:24:30Z</time>
      </trkpt>
      <trkpt lat="59.8539273" lon="17.6147875">
        <ele>21.767</ele>
        <time>2017-11-04T09:24:37Z</time>
      </trkpt>
      <trkpt lat="59.8539009" lon="17.6149258">
        <ele>25.1317</ele>
        <time>2017-11-04T09:24:43Z</time>
      </trkpt>
      <trkpt lat="59.8538678" lon="17.6150972">
        <ele>31.8607</ele>
        <time>2017-11-04T09:24:47Z</time>
      </trkpt>
      <trkpt lat="59.8538512" lon="17.6151852">
        <ele>35.2255</ele>
        <time>2017-11-04T09:24:52Z</time>
      </trkpt>
      <trkpt lat="59.8538422" lon="17.6152169">
        <ele>35.7061</ele>
        <time>2017-11-04T09:24:54Z</time>
      </trkpt>
      <trkpt lat="59.8538914" lon="17.6152451">
        <ele>35.7061</ele>
        <time>2017-11-04T09:25:00Z</time>
      </trkpt>
      <trkpt lat="59.8539336" lon="17.6152998">
        <ele>35.2255</ele>
        <time>2017-11-04T09:25:03Z</time>
      </trkpt>
      <trkpt lat="59.8539588" lon="17.6153438">
        <ele>34.7449</ele>
        <time>2017-11-04T09:25:05Z</time>
      </trkpt>
      <trkpt lat="59.8539672" lon="17.6154447">
        <ele>33.7834</ele>
        <time>2017-11-04T09:25:09Z</time>
      </trkpt>
      <trkpt lat="59.8539144" lon="17.6155918">
        <ele>31.8607</ele>
        <time>2017-11-04T09:25:16Z</time>
      </trkpt>
      <trkpt lat="59.8538922" lon="17.6156394">
        <ele>31.8607</ele>
        <time>2017-11-04T09:25:18Z</time>
      </trkpt>
      <trkpt lat="59.8538957" lon="17.615767">
        <ele>29.4575</ele>
        <time>2017-11-04T09:25:23Z</time>
      </trkpt>
      <trkpt lat="59.8539002" lon="17.6159162">
        <ele>28.4962</ele>
        <time>2017-11-04T09:25:28Z</time>
      </trkpt>
      <trkpt lat="59.8538403" lon="17.6160073">
        <ele>27.0543</ele>
        <time>2017-11-04T09:25:33Z</time>
      </trkpt>
      <trkpt lat="59.8537584" lon="17.6161151">
        <ele>24.651</ele>
        <time>2017-11-04T09:25:40Z</time>
      </trkpt>
      <trkpt lat="59.8537091" lon="17.6161669">
        <ele>24.651</ele>
        <time>2017-11-04T09:25:44Z</time>
      </trkpt>
      <trkpt lat="59.8536238" lon="17.6162213">
        <ele>23.6896</ele>
        <time>2017-11-04T09:25:50Z</time>
      </trkpt>
      <trkpt lat="59.8535695" lon="17.6162316">
        <ele>23.6896</ele>
        <time>2017-11-04T09:25:54Z</time>
      </trkpt>
      <trkpt lat="59.8534542" lon="17.6162846">
        <ele>24.1703</ele>
        <time>2017-11-04T09:26:02Z</time>
      </trkpt>
      <trkpt lat="59.8534224" lon="17.6163086">
        <ele>23.6896</ele>
        <time>2017-11-04T09:26:05Z</time>
      </trkpt>
      <trkpt lat="59.8533708" lon="17.6163669">
        <ele>23.6896</ele>
        <time>2017-11-04T09:26:10Z</time>
      </trkpt>
      <trkpt lat="59.8533124" lon="17.6165062">
        <ele>23.209</ele>
        <time>2017-11-04T09:26:18Z</time>
      </trkpt>
      <trkpt lat="59.8532991" lon="17.6165512">
        <ele>23.6896</ele>
        <time>2017-11-04T09:26:20Z</time>
      </trkpt>
      <trkpt lat="59.8532476" lon="17.6167256">
        <ele>20.8057</ele>
        <time>2017-11-04T09:26:27Z</time>
      </trkpt>
      <trkpt lat="59.8532922" lon="17.6168211">
        <ele>19.3638</ele>
        <time>2017-11-04T09:26:32Z</time>
      </trkpt>
      <trkpt lat="59.8533057" lon="17.6168518">
        <ele>18.8831</ele>
        <time>2017-11-04T09:26:34Z</time>
      </trkpt>
      <trkpt lat="59.8532865" lon="17.6169755">
        <ele>17.4412</ele>
        <time>2017-11-04T09:26:39Z</time>
      </trkpt>
      <trkpt lat="59.8532129" lon="17.6170661">
        <ele>16.9604</ele>
        <time>2017-11-04T09:26:45Z</time>
      </trkpt>
      <trkpt lat="59.8531152" lon="17.6171298">
        <ele>17.9218</ele>
        <time>2017-11-04T09:26:52Z</time>
      </trkpt>
      <trkpt lat="59.8530309" lon="17.6171754">
        <ele>17.9218</ele>
        <time>2017-11-04T09:26:59Z</time>
      </trkpt>
      <trkpt lat="59.8530182" lon="17.6171844">
        <ele>17.9218</ele>
        <time>2017-11-04T09:27:00Z</time>
      </trkpt>
      <trkpt lat="59.8529725" lon="17.617265">
        <ele>16.9604</ele>
        <time>2017-11-04T09:27:05Z</time>
      </trkpt>
      <trkpt lat="59.8529504" lon="17.6172862">
        <ele>16.9604</ele>
        <time>2017-11-04T09:27:07Z</time>
      </trkpt>
      <trkpt lat="59.8528943" lon="17.6173532">
        <ele>16.4797</ele>
        <time>2017-11-04T09:27:12Z</time>
      </trkpt>
      <trkpt lat="59.852824" lon="17.6174004">
        <ele>17.9218</ele>
        <time>2017-11-04T09:27:17Z</time>
      </trkpt>
      <trkpt lat="59.852746" lon="17.6174573">
        <ele>17.9218</ele>
        <time>2017-11-04T09:27:23Z</time>
      </trkpt>
      <trkpt lat="59.8526837" lon="17.6175382">
        <ele>16.4797</ele>
        <time>2017-11-04T09:27:29Z</time>
      </trkpt>
      <trkpt lat="59.8526691" lon="17.6176173">
        <ele>16.4797</ele>
        <time>2017-11-04T09:27:33Z</time>
      </trkpt>
      <trkpt lat="59.8526743" lon="17.6177257">
        <ele>16.4797</ele>
        <time>2017-11-04T09:27:38Z</time>
      </trkpt>
      <trkpt lat="59.8527052" lon="17.6179379">
        <ele>16.9604</ele>
        <time>2017-11-04T09:27:46Z</time>
      </trkpt>
      <trkpt lat="59.8527342" lon="17.6180892">
        <ele>17.9218</ele>
        <time>2017-11-04T09:27:52Z</time>
      </trkpt>
      <trkpt lat="59.8527425" lon="17.6181385">
        <ele>17.4412</ele>
        <time>2017-11-04T09:27:54Z</time>
      </trkpt>
      <trkpt lat="59.8528033" lon="17.6183471">
        <ele>18.4023</ele>
        <time>2017-11-04T09:28:04Z</time>
      </trkpt>
      <trkpt lat="59.8528403" lon="17.6184861">
        <ele>18.8831</ele>
        <time>2017-11-04T09:28:11Z</time>
      </trkpt>
      <trkpt lat="59.852861" lon="17.6186244">
        <ele>18.8831</ele>
        <time>2017-11-04T09:28:17Z</time>
      </trkpt>
      <trkpt lat="59.8528745" lon="17.6187077">
        <ele>18.4023</ele>
        <time>2017-11-04T09:28:21Z</time>
      </trkpt>
      <trkpt lat="59.8528849" lon="17.6187589">
        <ele>18.4023</ele>
        <time>2017-11-04T09:28:23Z</time>
      </trkpt>
      <trkpt lat="59.8529337" lon="17.6189925">
        <ele>20.8057</ele>
        <time>2017-11-04T09:28:32Z</time>
      </trkpt>
      <trkpt lat="59.8529799" lon="17.6192158">
        <ele>21.767</ele>
        <time>2017-11-04T09:28:41Z</time>
      </trkpt>
      <trkpt lat="59.8529871" lon="17.6192784">
        <ele>22.2476</ele>
        <time>2017-11-04T09:28:44Z</time>
      </trkpt>
      <trkpt lat="59.8530252" lon="17.6194759">
        <ele>21.2864</ele>
        <time>2017-11-04T09:28:52Z</time>
      </trkpt>
      <trkpt lat="59.8530489" lon="17.6196209">
        <ele>22.2476</ele>
        <time>2017-11-04T09:28:58Z</time>
      </trkpt>
      <trkpt lat="59.8530859" lon="17.6197391">
        <ele>22.2476</ele>
        <time>2017-11-04T09:29:02Z</time>
      </trkpt>
      <trkpt lat="59.8531221" lon="17.619862">
        <ele>22.7283</ele>
        <time>2017-11-04T09:29:08Z</time>
      </trkpt>
      <trkpt lat="59.853163" lon="17.6199919">
        <ele>24.1703</ele>
        <time>2017-11-04T09:29:14Z</time>
      </trkpt>
      <trkpt lat="59.8531654" lon="17.6200134">
        <ele>23.6896</ele>
        <time>2017-11-04T09:29:15Z</time>
      </trkpt>
      <trkpt lat="59.8532205" lon="17.6201608">
        <ele>25.1317</ele>
        <time>2017-11-04T09:29:23Z</time>
      </trkpt>
      <trkpt lat="59.8532713" lon="17.6202634">
        <ele>24.651</ele>
        <time>2017-11-04T09:29:28Z</time>
      </trkpt>
      <trkpt lat="59.8533155" lon="17.620391">
        <ele>24.1703</ele>
        <time>2017-11-04T09:29:34Z</time>
      </trkpt>
      <trkpt lat="59.8533688" lon="17.620513">
        <ele>26.5736</ele>
        <time>2017-11-04T09:29:40Z</time>
      </trkpt>
      <trkpt lat="59.8534335" lon="17.6206591">
        <ele>29.4575</ele>
        <time>2017-11-04T09:29:47Z</time>
      </trkpt>
      <trkpt lat="59.8535181" lon="17.620791">
        <ele>30.8995</ele>
        <time>2017-11-04T09:29:54Z</time>
      </trkpt>
      <trkpt lat="59.8535793" lon="17.620921">
        <ele>31.8607</ele>
        <time>2017-11-04T09:30:02Z</time>
      </trkpt>
      <trkpt lat="59.8536241" lon="17.621056">
        <ele>28.4962</ele>
        <time>2017-11-04T09:30:09Z</time>
      </trkpt>
      <trkpt lat="59.8536585" lon="17.6211832">
        <ele>25.6123</ele>
        <time>2017-11-04T09:30:15Z</time>
      </trkpt>
      <trkpt lat="59.8536728" lon="17.6212195">
        <ele>25.1317</ele>
        <time>2017-11-04T09:30:17Z</time>
      </trkpt>
      <trkpt lat="59.8536897" lon="17.6212891">
        <ele>24.1703</ele>
        <time>2017-11-04T09:30:20Z</time>
      </trkpt>
      <trkpt lat="59.8537574" lon="17.6214527">
        <ele>20.325</ele>
        <time>2017-11-04T09:30:29Z</time>
      </trkpt>
      <trkpt lat="59.8538499" lon="17.6216116">
        <ele>23.209</ele>
        <time>2017-11-04T09:30:38Z</time>
      </trkpt>
      <trkpt lat="59.8539655" lon="17.6217877">
        <ele>28.4962</ele>
        <time>2017-11-04T09:30:47Z</time>
      </trkpt>
      <trkpt lat="59.8540097" lon="17.621934">
        <ele>27.0543</ele>
        <time>2017-11-04T09:30:54Z</time>
      </trkpt>
      <trkpt lat="59.8540266" lon="17.62198">
        <ele>27.0543</ele>
        <time>2017-11-04T09:30:59Z</time>
      </trkpt>
      <trkpt lat="59.8540826" lon="17.6221431">
        <ele>27.0543</ele>
        <time>2017-11-04T09:31:09Z</time>
      </trkpt>
      <trkpt lat="59.8540972" lon="17.62221">
        <ele>27.0543</ele>
        <time>2017-11-04T09:31:11Z</time>
      </trkpt>
      <trkpt lat="59.8540464" lon="17.6223641">
        <ele>25.6123</ele>
        <time>2017-11-04T09:31:19Z</time>
      </trkpt>
      <trkpt lat="59.8540531" lon="17.6223859">
        <ele>26.0929</ele>
        <time>2017-11-04T09:31:20Z</time>
      </trkpt>
      <trkpt lat="59.8541014" lon="17.6224805">
        <ele>27.0543</ele>
        <time>2017-11-04T09:31:25Z</time>
      </trkpt>
      <trkpt lat="59.8541241" lon="17.6225582">
        <ele>28.0155</ele>
        <time>2017-11-04T09:31:29Z</time>
      </trkpt>
      <trkpt lat="59.8541811" lon="17.6226927">
        <ele>29.4575</ele>
        <time>2017-11-04T09:31:36Z</time>
      </trkpt>
      <trkpt lat="59.8542079" lon="17.6227379">
        <ele>29.9381</ele>
        <time>2017-11-04T09:31:38Z</time>
      </trkpt>
      <trkpt lat="59.8542752" lon="17.622791">
        <ele>31.3801</ele>
        <time>2017-11-04T09:31:42Z</time>
      </trkpt>
      <trkpt lat="59.8542951" lon="17.6229216">
        <ele>31.3801</ele>
        <time>2017-11-04T09:31:48Z</time>
      </trkpt>
      <trkpt lat="59.8541947" lon="17.6230897">
        <ele>29.4575</ele>
        <time>2017-11-04T09:31:56Z</time>
      </trkpt>
      <trkpt lat="59.8541533" lon="17.6231788">
        <ele>28.4962</ele>
        <time>2017-11-04T09:32:01Z</time>
      </trkpt>
      <trkpt lat="59.8540997" lon="17.6232824">
        <ele>28.9769</ele>
        <time>2017-11-04T09:32:07Z</time>
      </trkpt>
      <trkpt lat="59.8540377" lon="17.6233826">
        <ele>27.5349</ele>
        <time>2017-11-04T09:32:13Z</time>
      </trkpt>
      <trkpt lat="59.8540134" lon="17.62342">
        <ele>27.0543</ele>
        <time>2017-11-04T09:32:15Z</time>
      </trkpt>
      <trkpt lat="59.8540222" lon="17.6235206">
        <ele>27.0543</ele>
        <time>2017-11-04T09:32:20Z</time>
      </trkpt>
      <trkpt lat="59.8540568" lon="17.6236014">
        <ele>28.0155</ele>
        <time>2017-11-04T09:32:24Z</time>
      </trkpt>
      <trkpt lat="59.8541236" lon="17.6237341">
        <ele>32.3416</ele>
        <time>2017-11-04T09:32:31Z</time>
      </trkpt>
      <trkpt lat="59.854162" lon="17.6238586">
        <ele>31.3801</ele>
        <time>2017-11-04T09:32:37Z</time>
      </trkpt>
      <trkpt lat="59.8541667" lon="17.6238749">
        <ele>31.8607</ele>
        <time>2017-11-04T09:32:38Z</time>
      </trkpt>
      <trkpt lat="59.8541962" lon="17.6239907">
        <ele>31.8607</ele>
        <time>2017-11-04T09:32:44Z</time>
      </trkpt>
      <trkpt lat="59.8541874" lon="17.6240668">
        <ele>30.8995</ele>
        <time>2017-11-04T09:32:48Z</time>
      </trkpt>
      <trkpt lat="59.8541987" lon="17.6242105">
        <ele>30.4188</ele>
        <time>2017-11-04T09:32:55Z</time>
      </trkpt>
      <trkpt lat="59.8542187" lon="17.6242774">
        <ele>31.3801</ele>
        <time>2017-11-04T09:32:58Z</time>
      </trkpt>
      <trkpt lat="59.8542402" lon="17.6244258">
        <ele>33.3029</ele>
        <time>2017-11-04T09:33:05Z</time>
      </trkpt>
      <trkpt lat="59.8542148" lon="17.6245447">
        <ele>32.3416</ele>
        <time>2017-11-04T09:33:12Z</time>
      </trkpt>
      <trkpt lat="59.8541786" lon="17.6246028">
        <ele>31.8607</ele>
        <time>2017-11-04T09:33:16Z</time>
      </trkpt>
      <trkpt lat="59.8541569" lon="17.6246477">
        <ele>31.8607</ele>
        <time>2017-11-04T09:33:21Z</time>
      </trkpt>
      <trkpt lat="59.8542907" lon="17.624437">
        <ele>31.3801</ele>
        <time>2017-11-04T09:33:54Z</time>
      </trkpt>
      <trkpt lat="59.8543251" lon="17.6243582">
        <ele>30.4188</ele>
        <time>2017-11-04T09:33:58Z</time>
      </trkpt>
      <trkpt lat="59.8543337" lon="17.6243479">
        <ele>29.9381</ele>
        <time>2017-11-04T09:33:59Z</time>
      </trkpt>
      <trkpt lat="59.8543536" lon="17.6243207">
        <ele>29.4575</ele>
        <time>2017-11-04T09:34:03Z</time>
      </trkpt>
      <trkpt lat="59.8545583" lon="17.6248198">
        <ele>27.5349</ele>
        <time>2017-11-04T09:34:42Z</time>
      </trkpt>
      <trkpt lat="59.8546104" lon="17.6249351">
        <ele>27.5349</ele>
        <time>2017-11-04T09:34:47Z</time>
      </trkpt>
      <trkpt lat="59.8546307" lon="17.624983">
        <ele>28.0155</ele>
        <time>2017-11-04T09:34:50Z</time>
      </trkpt>
      <trkpt lat="59.8546695" lon="17.6250135">
        <ele>28.9769</ele>
        <time>2017-11-04T09:34:53Z</time>
      </trkpt>
      <trkpt lat="59.8547604" lon="17.624904">
        <ele>28.0155</ele>
        <time>2017-11-04T09:35:01Z</time>
      </trkpt>
      <trkpt lat="59.8548342" lon="17.6247916">
        <ele>26.5736</ele>
        <time>2017-11-04T09:35:09Z</time>
      </trkpt>
      <trkpt lat="59.8549007" lon="17.6247104">
        <ele>26.5736</ele>
        <time>2017-11-04T09:35:16Z</time>
      </trkpt>
      <trkpt lat="59.8549622" lon="17.6245876">
        <ele>25.6123</ele>
        <time>2017-11-04T09:35:23Z</time>
      </trkpt>
      <trkpt lat="59.8549895" lon="17.6245455">
        <ele>26.5736</ele>
        <time>2017-11-04T09:35:25Z</time>
      </trkpt>
      <trkpt lat="59.8550767" lon="17.6244167">
        <ele>28.4962</ele>
        <time>2017-11-04T09:35:33Z</time>
      </trkpt>
      <trkpt lat="59.8551462" lon="17.6242996">
        <ele>27.5349</ele>
        <time>2017-11-04T09:35:40Z</time>
      </trkpt>
      <trkpt lat="59.855175" lon="17.6242244">
        <ele>27.5349</ele>
        <time>2017-11-04T09:35:44Z</time>
      </trkpt>
      <trkpt lat="59.8552066" lon="17.6241617">
        <ele>26.5736</ele>
        <time>2017-11-04T09:35:48Z</time>
      </trkpt>
      <trkpt lat="59.8553015" lon="17.6240049">
        <ele>26.0929</ele>
        <time>2017-11-04T09:35:58Z</time>
      </trkpt>
      <trkpt lat="59.8553385" lon="17.6239505">
        <ele>25.6123</ele>
        <time>2017-11-04T09:36:02Z</time>
      </trkpt>
      <trkpt lat="59.8554009" lon="17.6238346">
        <ele>24.1703</ele>
        <time>2017-11-04T09:36:10Z</time>
      </trkpt>
      <trkpt lat="59.8554302" lon="17.623792">
        <ele>24.1703</ele>
        <time>2017-11-04T09:36:14Z</time>
      </trkpt>
      <trkpt lat="59.8554658" lon="17.623749">
        <ele>24.1703</ele>
        <time>2017-11-04T09:36:18Z</time>
      </trkpt>
      <trkpt lat="59.8554943" lon="17.6236615">
        <ele>23.6896</ele>
        <time>2017-11-04T09:36:26Z</time>
      </trkpt>
      <trkpt lat="59.855555" lon="17.6235035">
        <ele>22.7283</ele>
        <time>2017-11-04T09:36:37Z</time>
      </trkpt>
      <trkpt lat="59.8555832" lon="17.6234473">
        <ele>22.2476</ele>
        <time>2017-11-04T09:36:39Z</time>
      </trkpt>
      <trkpt lat="59.8556032" lon="17.6233717">
        <ele>21.767</ele>
        <time>2017-11-04T09:36:43Z</time>
      </trkpt>
      <trkpt lat="59.8556823" lon="17.6232072">
        <ele>25.6123</ele>
        <time>2017-11-04T09:36:52Z</time>
      </trkpt>
      <trkpt lat="59.8557493" lon="17.6231082">
        <ele>26.5736</ele>
        <time>2017-11-04T09:36:58Z</time>
      </trkpt>
      <trkpt lat="59.8557802" lon="17.623033">
        <ele>25.6123</ele>
        <time>2017-11-04T09:37:02Z</time>
      </trkpt>
      <trkpt lat="59.8558714" lon="17.6228911">
        <ele>24.651</ele>
        <time>2017-11-04T09:37:11Z</time>
      </trkpt>
      <trkpt lat="59.8559413" lon="17.6227777">
        <ele>24.651</ele>
        <time>2017-11-04T09:37:18Z</time>
      </trkpt>
      <trkpt lat="59.8559637" lon="17.6227276">
        <ele>23.6896</ele>
        <time>2017-11-04T09:37:21Z</time>
      </trkpt>
      <trkpt lat="59.8560232" lon="17.6226307">
        <ele>23.6896</ele>
        <time>2017-11-04T09:37:27Z</time>
      </trkpt>
      <trkpt lat="59.8560769" lon="17.6225212">
        <ele>23.6896</ele>
        <time>2017-11-04T09:37:33Z</time>
      </trkpt>
      <trkpt lat="59.8560951" lon="17.6223917">
        <ele>21.767</ele>
        <time>2017-11-04T09:37:38Z</time>
      </trkpt>
      <trkpt lat="59.8561012" lon="17.6223463">
        <ele>21.2864</ele>
        <time>2017-11-04T09:37:40Z</time>
      </trkpt>
      <trkpt lat="59.8561024" lon="17.6221763">
        <ele>21.767</ele>
        <time>2017-11-04T09:37:46Z</time>
      </trkpt>
      <trkpt lat="59.8561002" lon="17.6221547">
        <ele>20.8057</ele>
        <time>2017-11-04T09:37:47Z</time>
      </trkpt>
      <trkpt lat="59.8560993" lon="17.6220919">
        <ele>17.4412</ele>
        <time>2017-11-04T09:37:50Z</time>
      </trkpt>
      <trkpt lat="59.8561236" lon="17.6220217">
        <ele>16.9604</ele>
        <time>2017-11-04T09:37:54Z</time>
      </trkpt>
      <trkpt lat="59.8561681" lon="17.6220174">
        <ele>16.9604</ele>
        <time>2017-11-04T09:37:58Z</time>
      </trkpt>
      <trkpt lat="59.856261" lon="17.6219894">
        <ele>19.3638</ele>
        <time>2017-11-04T09:38:05Z</time>
      </trkpt>
      <trkpt lat="59.8563278" lon="17.6220585">
        <ele>20.8057</ele>
        <time>2017-11-04T09:38:11Z</time>
      </trkpt>
      <trkpt lat="59.8563999" lon="17.6221922">
        <ele>20.8057</ele>
        <time>2017-11-04T09:38:19Z</time>
      </trkpt>
      <trkpt lat="59.8564765" lon="17.6223368">
        <ele>21.2864</ele>
        <time>2017-11-04T09:38:28Z</time>
      </trkpt>
      <trkpt lat="59.8565556" lon="17.6225239">
        <ele>22.2476</ele>
        <time>2017-11-04T09:38:38Z</time>
      </trkpt>
      <trkpt lat="59.8565873" lon="17.6225823">
        <ele>22.7283</ele>
        <time>2017-11-04T09:38:43Z</time>
      </trkpt>
      <trkpt lat="59.8565796" lon="17.6225662">
        <ele>23.209</ele>
        <time>2017-11-04T09:38:46Z</time>
      </trkpt>
      <trkpt lat="59.8566576" lon="17.62276">
        <ele>27.5349</ele>
        <time>2017-11-04T09:39:44Z</time>
      </trkpt>
      <trkpt lat="59.8567422" lon="17.6229372">
        <ele>25.6123</ele>
        <time>2017-11-04T09:39:53Z</time>
      </trkpt>
      <trkpt lat="59.8568018" lon="17.6230583">
        <ele>24.651</ele>
        <time>2017-11-04T09:40:00Z</time>
      </trkpt>
      <trkpt lat="59.8568682" lon="17.6232025">
        <ele>22.7283</ele>
        <time>2017-11-04T09:40:08Z</time>
      </trkpt>
      <trkpt lat="59.8569224" lon="17.6233057">
        <ele>22.2476</ele>
        <time>2017-11-04T09:40:14Z</time>
      </trkpt>
      <trkpt lat="59.85694" lon="17.6233404">
        <ele>22.2476</ele>
        <time>2017-11-04T09:40:18Z</time>
      </trkpt>
      <trkpt lat="59.8569803" lon="17.6234361">
        <ele>24.651</ele>
        <time>2017-11-04T09:40:51Z</time>
      </trkpt>
      <trkpt lat="59.8570333" lon="17.6235523">
        <ele>23.6896</ele>
        <time>2017-11-04T09:40:56Z</time>
      </trkpt>
      <trkpt lat="59.8570825" lon="17.6236366">
        <ele>22.7283</ele>
        <time>2017-11-04T09:41:01Z</time>
      </trkpt>
      <trkpt lat="59.8571379" lon="17.6237695">
        <ele>21.2864</ele>
        <time>2017-11-04T09:41:07Z</time>
      </trkpt>
      <trkpt lat="59.8571764" lon="17.6238687">
        <ele>21.767</ele>
        <time>2017-11-04T09:41:12Z</time>
      </trkpt>
      <trkpt lat="59.8571935" lon="17.6239178">
        <ele>22.2476</ele>
        <time>2017-11-04T09:41:14Z</time>
      </trkpt>
      <trkpt lat="59.8572395" lon="17.6239893">
        <ele>22.2476</ele>
        <time>2017-11-04T09:41:18Z</time>
      </trkpt>
      <trkpt lat="59.8573235" lon="17.6241568">
        <ele>21.767</ele>
        <time>2017-11-04T09:41:27Z</time>
      </trkpt>
      <trkpt lat="59.8574082" lon="17.6243142">
        <ele>21.767</ele>
        <time>2017-11-04T09:41:35Z</time>
      </trkpt>
      <trkpt lat="59.8574721" lon="17.6244489">
        <ele>21.2864</ele>
        <time>2017-11-04T09:41:42Z</time>
      </trkpt>
      <trkpt lat="59.8575549" lon="17.6246134">
        <ele>21.2864</ele>
        <time>2017-11-04T09:41:50Z</time>
      </trkpt>
      <trkpt lat="59.8576109" lon="17.624729">
        <ele>20.325</ele>
        <time>2017-11-04T09:41:56Z</time>
      </trkpt>
      <trkpt lat="59.8576954" lon="17.6247374">
        <ele>21.2864</ele>
        <time>2017-11-04T09:42:04Z</time>
      </trkpt>
      <trkpt lat="59.8577029" lon="17.6247342">
        <ele>22.2476</ele>
        <time>2017-11-04T09:42:07Z</time>
      </trkpt>
      <trkpt lat="59.8577522" lon="17.624743">
        <ele>22.7283</ele>
        <time>2017-11-04T09:42:12Z</time>
      </trkpt>
      <trkpt lat="59.8578082" lon="17.6247196">
        <ele>23.209</ele>
        <time>2017-11-04T09:42:15Z</time>
      </trkpt>
      <trkpt lat="59.8578957" lon="17.6245613">
        <ele>21.2864</ele>
        <time>2017-11-04T09:42:24Z</time>
      </trkpt>
      <trkpt lat="59.8579446" lon="17.6244934">
        <ele>21.767</ele>
        <time>2017-11-04T09:42:28Z</time>
      </trkpt>
      <trkpt lat="59.858003" lon="17.6243685">
        <ele>20.325</ele>
        <time>2017-11-04T09:42:35Z</time>
      </trkpt>
      <trkpt lat="59.8580292" lon="17.6243105">
        <ele>19.8444</ele>
        <time>2017-11-04T09:42:38Z</time>
      </trkpt>
      <trkpt lat="59.8580496" lon="17.6242716">
        <ele>19.8444</ele>
        <time>2017-11-04T09:42:40Z</time>
      </trkpt>
      <trkpt lat="59.8580999" lon="17.6241183">
        <ele>17.4412</ele>
        <time>2017-11-04T09:42:47Z</time>
      </trkpt>
      <trkpt lat="59.8581886" lon="17.6239718">
        <ele>16.9604</ele>
        <time>2017-11-04T09:42:56Z</time>
      </trkpt>
      <trkpt lat="59.8582429" lon="17.6238947">
        <ele>16.9604</ele>
        <time>2017-11-04T09:43:01Z</time>
      </trkpt>
      <trkpt lat="59.8582722" lon="17.6238381">
        <ele>16.4797</ele>
        <time>2017-11-04T09:43:04Z</time>
      </trkpt>
      <trkpt lat="59.858335" lon="17.6236859">
        <ele>12.6344</ele>
        <time>2017-11-04T09:43:11Z</time>
      </trkpt>
      <trkpt lat="59.8583747" lon="17.6235986">
        <ele>12.1538</ele>
        <time>2017-11-04T09:43:15Z</time>
      </trkpt>
      <trkpt lat="59.8584025" lon="17.623565">
        <ele>13.1151</ele>
        <time>2017-11-04T09:43:17Z</time>
      </trkpt>
      <trkpt lat="59.8584438" lon="17.6234626">
        <ele>13.1151</ele>
        <time>2017-11-04T09:43:22Z</time>
      </trkpt>
      <trkpt lat="59.8585015" lon="17.6233791">
        <ele>13.5958</ele>
        <time>2017-11-04T09:43:27Z</time>
      </trkpt>
      <trkpt lat="59.8585742" lon="17.623279">
        <ele>15.999</ele>
        <time>2017-11-04T09:43:33Z</time>
      </trkpt>
      <trkpt lat="59.8586557" lon="17.6231506">
        <ele>17.4412</ele>
        <time>2017-11-04T09:43:40Z</time>
      </trkpt>
      <trkpt lat="59.8587333" lon="17.623013">
        <ele>17.4412</ele>
        <time>2017-11-04T09:43:47Z</time>
      </trkpt>
      <trkpt lat="59.8587982" lon="17.6229016">
        <ele>17.9218</ele>
        <time>2017-11-04T09:43:53Z</time>
      </trkpt>
      <trkpt lat="59.8588448" lon="17.6228285">
        <ele>17.9218</ele>
        <time>2017-11-04T09:43:57Z</time>
      </trkpt>
      <trkpt lat="59.8588903" lon="17.6227385">
        <ele>16.4797</ele>
        <time>2017-11-04T09:44:02Z</time>
      </trkpt>
      <trkpt lat="59.8589215" lon="17.6226679">
        <ele>15.5184</ele>
        <time>2017-11-04T09:44:06Z</time>
      </trkpt>
      <trkpt lat="59.8590125" lon="17.6225069">
        <ele>14.557</ele>
        <time>2017-11-04T09:44:15Z</time>
      </trkpt>
      <trkpt lat="59.8591002" lon="17.6223338">
        <ele>15.0377</ele>
        <time>2017-11-04T09:44:24Z</time>
      </trkpt>
      <trkpt lat="59.859107" lon="17.6223089">
        <ele>14.0764</ele>
        <time>2017-11-04T09:44:25Z</time>
      </trkpt>
      <trkpt lat="59.8592041" lon="17.6221679">
        <ele>15.0377</ele>
        <time>2017-11-04T09:44:33Z</time>
      </trkpt>
      <trkpt lat="59.8592891" lon="17.6220585">
        <ele>15.999</ele>
        <time>2017-11-04T09:44:40Z</time>
      </trkpt>
      <trkpt lat="59.8593462" lon="17.6219479">
        <ele>14.557</ele>
        <time>2017-11-04T09:44:46Z</time>
      </trkpt>
      <trkpt lat="59.8594141" lon="17.6218057">
        <ele>14.557</ele>
        <time>2017-11-04T09:44:53Z</time>
      </trkpt>
      <trkpt lat="59.85949" lon="17.6216599">
        <ele>13.5958</ele>
        <time>2017-11-04T09:45:01Z</time>
      </trkpt>
      <trkpt lat="59.8595291" lon="17.6214842">
        <ele>12.6344</ele>
        <time>2017-11-04T09:45:08Z</time>
      </trkpt>
      <trkpt lat="59.8595311" lon="17.6214097">
        <ele>13.1151</ele>
        <time>2017-11-04T09:45:11Z</time>
      </trkpt>
      <trkpt lat="59.859585" lon="17.621247">
        <ele>14.557</ele>
        <time>2017-11-04T09:45:18Z</time>
      </trkpt>
      <trkpt lat="59.8595953" lon="17.6212273">
        <ele>14.557</ele>
        <time>2017-11-04T09:45:19Z</time>
      </trkpt>
      <trkpt lat="59.8596746" lon="17.6210827">
        <ele>15.999</ele>
        <time>2017-11-04T09:45:27Z</time>
      </trkpt>
      <trkpt lat="59.859733" lon="17.620929">
        <ele>16.4797</ele>
        <time>2017-11-04T09:45:34Z</time>
      </trkpt>
      <trkpt lat="59.8598233" lon="17.6207989">
        <ele>16.9604</ele>
        <time>2017-11-04T09:45:42Z</time>
      </trkpt>
      <trkpt lat="59.8598827" lon="17.6206566">
        <ele>18.4023</ele>
        <time>2017-11-04T09:45:49Z</time>
      </trkpt>
      <trkpt lat="59.8599409" lon="17.6205467">
        <ele>16.9604</ele>
        <time>2017-11-04T09:45:55Z</time>
      </trkpt>
      <trkpt lat="59.8600129" lon="17.6204337">
        <ele>15.999</ele>
        <time>2017-11-04T09:46:02Z</time>
      </trkpt>
      <trkpt lat="59.8600884" lon="17.6203218">
        <ele>15.5184</ele>
        <time>2017-11-04T09:46:09Z</time>
      </trkpt>
      <trkpt lat="59.860171" lon="17.6202208">
        <ele>15.5184</ele>
        <time>2017-11-04T09:46:16Z</time>
      </trkpt>
      <trkpt lat="59.8602394" lon="17.6201004">
        <ele>15.0377</ele>
        <time>2017-11-04T09:46:23Z</time>
      </trkpt>
      <trkpt lat="59.8603148" lon="17.6199525">
        <ele>14.0764</ele>
        <time>2017-11-04T09:46:31Z</time>
      </trkpt>
      <trkpt lat="59.8603811" lon="17.6198275">
        <ele>13.1151</ele>
        <time>2017-11-04T09:46:38Z</time>
      </trkpt>
      <trkpt lat="59.860438" lon="17.6197116">
        <ele>14.0764</ele>
        <time>2017-11-04T09:46:44Z</time>
      </trkpt>
      <trkpt lat="59.8604678" lon="17.6196337">
        <ele>13.1151</ele>
        <time>2017-11-04T09:46:49Z</time>
      </trkpt>
      <trkpt lat="59.8605427" lon="17.6195267">
        <ele>14.557</ele>
        <time>2017-11-04T09:46:56Z</time>
      </trkpt>
      <trkpt lat="59.8606319" lon="17.6194191">
        <ele>15.0377</ele>
        <time>2017-11-04T09:47:04Z</time>
      </trkpt>
      <trkpt lat="59.8606649" lon="17.6193485">
        <ele>14.557</ele>
        <time>2017-11-04T09:47:08Z</time>
      </trkpt>
      <trkpt lat="59.8607049" lon="17.6193017">
        <ele>15.5184</ele>
        <time>2017-11-04T09:47:12Z</time>
      </trkpt>
      <trkpt lat="59.8607077" lon="17.6192696">
        <ele>15.5184</ele>
        <time>2017-11-04T09:47:16Z</time>
      </trkpt>
      <trkpt lat="59.8607364" lon="17.6191937">
        <ele>17.9218</ele>
        <time>2017-11-04T09:47:28Z</time>
      </trkpt>
      <trkpt lat="59.8608018" lon="17.6190983">
        <ele>17.4412</ele>
        <time>2017-11-04T09:47:31Z</time>
      </trkpt>
      <trkpt lat="59.8608944" lon="17.6190592">
        <ele>15.5184</ele>
        <time>2017-11-04T09:47:36Z</time>
      </trkpt>
      <trkpt lat="59.8609143" lon="17.6190543">
        <ele>15.999</ele>
        <time>2017-11-04T09:47:37Z</time>
      </trkpt>
      <trkpt lat="59.8609339" lon="17.6190479">
        <ele>15.5184</ele>
        <time>2017-11-04T09:47:38Z</time>
      </trkpt>
      <trkpt lat="59.8610329" lon="17.6189016">
        <ele>12.6344</ele>
        <time>2017-11-04T09:47:44Z</time>
      </trkpt>
      <trkpt lat="59.861112" lon="17.6187522">
        <ele>11.1925</ele>
        <time>2017-11-04T09:47:49Z</time>
      </trkpt>
      <trkpt lat="59.8612059" lon="17.618602">
        <ele>11.6732</ele>
        <time>2017-11-04T09:47:55Z</time>
      </trkpt>
      <trkpt lat="59.8613461" lon="17.6184105">
        <ele>11.6732</ele>
        <time>2017-11-04T09:48:03Z</time>
      </trkpt>
      <trkpt lat="59.8614255" lon="17.6182799">
        <ele>11.1925</ele>
        <time>2017-11-04T09:48:08Z</time>
      </trkpt>
      <trkpt lat="59.8615318" lon="17.6180945">
        <ele>10.7118</ele>
        <time>2017-11-04T09:48:15Z</time>
      </trkpt>
      <trkpt lat="59.8616312" lon="17.6178476">
        <ele>10.7118</ele>
        <time>2017-11-04T09:48:22Z</time>
      </trkpt>
      <trkpt lat="59.8617223" lon="17.6176805">
        <ele>12.1538</ele>
        <time>2017-11-04T09:48:28Z</time>
      </trkpt>
      <trkpt lat="59.861798" lon="17.6175893">
        <ele>13.1151</ele>
        <time>2017-11-04T09:48:33Z</time>
      </trkpt>
      <trkpt lat="59.8618705" lon="17.6174316">
        <ele>10.7118</ele>
        <time>2017-11-04T09:48:38Z</time>
      </trkpt>
      <trkpt lat="59.8618995" lon="17.61737">
        <ele>10.2312</ele>
        <time>2017-11-04T09:48:40Z</time>
      </trkpt>
      <trkpt lat="59.8619711" lon="17.6171333">
        <ele>10.2312</ele>
        <time>2017-11-04T09:48:46Z</time>
      </trkpt>
      <trkpt lat="59.8620564" lon="17.6168828">
        <ele>9.2699</ele>
        <time>2017-11-04T09:48:53Z</time>
      </trkpt>
      <trkpt lat="59.8621207" lon="17.6166661">
        <ele>9.2699</ele>
        <time>2017-11-04T09:48:59Z</time>
      </trkpt>
      <trkpt lat="59.8621923" lon="17.6164596">
        <ele>9.75061</ele>
        <time>2017-11-04T09:49:05Z</time>
      </trkpt>
      <trkpt lat="59.862259" lon="17.6163135">
        <ele>12.6344</ele>
        <time>2017-11-04T09:49:10Z</time>
      </trkpt>
      <trkpt lat="59.8622704" lon="17.616282">
        <ele>13.1151</ele>
        <time>2017-11-04T09:49:11Z</time>
      </trkpt>
      <trkpt lat="59.8623352" lon="17.616241">
        <ele>15.5184</ele>
        <time>2017-11-04T09:49:14Z</time>
      </trkpt>
      <trkpt lat="59.8623738" lon="17.6161468">
        <ele>15.5184</ele>
        <time>2017-11-04T09:49:17Z</time>
      </trkpt>
      <trkpt lat="59.8624412" lon="17.6159289">
        <ele>14.557</ele>
        <time>2017-11-04T09:49:23Z</time>
      </trkpt>
      <trkpt lat="59.8625022" lon="17.6157209">
        <ele>13.5958</ele>
        <time>2017-11-04T09:49:29Z</time>
      </trkpt>
      <trkpt lat="59.8625547" lon="17.6155514">
        <ele>13.1151</ele>
        <time>2017-11-04T09:49:34Z</time>
      </trkpt>
      <trkpt lat="59.8626237" lon="17.6152908">
        <ele>14.557</ele>
        <time>2017-11-04T09:49:41Z</time>
      </trkpt>
      <trkpt lat="59.8626953" lon="17.6150379">
        <ele>15.0377</ele>
        <time>2017-11-04T09:49:48Z</time>
      </trkpt>
      <trkpt lat="59.8627433" lon="17.614806">
        <ele>15.5184</ele>
        <time>2017-11-04T09:49:54Z</time>
      </trkpt>
      <trkpt lat="59.8627807" lon="17.6146061">
        <ele>15.5184</ele>
        <time>2017-11-04T09:49:59Z</time>
      </trkpt>
      <trkpt lat="59.8627778" lon="17.6143077">
        <ele>15.5184</ele>
        <time>2017-11-04T09:50:06Z</time>
      </trkpt>
      <trkpt lat="59.8628457" lon="17.614119">
        <ele>15.5184</ele>
        <time>2017-11-04T09:50:11Z</time>
      </trkpt>
      <trkpt lat="59.8629443" lon="17.6138751">
        <ele>15.0377</ele>
        <time>2017-11-04T09:50:18Z</time>
      </trkpt>
      <trkpt lat="59.8629975" lon="17.6136664">
        <ele>13.1151</ele>
        <time>2017-11-04T09:50:24Z</time>
      </trkpt>
      <trkpt lat="59.8630272" lon="17.6134748">
        <ele>13.1151</ele>
        <time>2017-11-04T09:50:29Z</time>
      </trkpt>
      <trkpt lat="59.8630506" lon="17.6131551">
        <ele>13.5958</ele>
        <time>2017-11-04T09:50:37Z</time>
      </trkpt>
      <trkpt lat="59.8630809" lon="17.6129122">
        <ele>12.6344</ele>
        <time>2017-11-04T09:50:44Z</time>
      </trkpt>
      <trkpt lat="59.8631604" lon="17.6127233">
        <ele>15.999</ele>
        <time>2017-11-04T09:50:49Z</time>
      </trkpt>
      <trkpt lat="59.8632259" lon="17.6124419">
        <ele>18.4023</ele>
        <time>2017-11-04T09:50:56Z</time>
      </trkpt>
      <trkpt lat="59.8632977" lon="17.6122294">
        <ele>17.9218</ele>
        <time>2017-11-04T09:51:02Z</time>
      </trkpt>
      <trkpt lat="59.8633809" lon="17.6120454">
        <ele>17.9218</ele>
        <time>2017-11-04T09:51:08Z</time>
      </trkpt>
      <trkpt lat="59.8634623" lon="17.6118358">
        <ele>17.9218</ele>
        <time>2017-11-04T09:51:14Z</time>
      </trkpt>
      <trkpt lat="59.8635679" lon="17.6115648">
        <ele>17.4412</ele>
        <time>2017-11-04T09:51:22Z</time>
      </trkpt>
      <trkpt lat="59.8636949" lon="17.6113906">
        <ele>16.9604</ele>
        <time>2017-11-04T09:51:29Z</time>
      </trkpt>
      <trkpt lat="59.8637693" lon="17.6112809">
        <ele>16.4797</ele>
        <time>2017-11-04T09:51:33Z</time>
      </trkpt>
      <trkpt lat="59.8638646" lon="17.6110904">
        <ele>16.4797</ele>
        <time>2017-11-04T09:51:39Z</time>
      </trkpt>
      <trkpt lat="59.864003" lon="17.6108722">
        <ele>15.999</ele>
        <time>2017-11-04T09:51:47Z</time>
      </trkpt>
      <trkpt lat="59.8640994" lon="17.6106646">
        <ele>15.5184</ele>
        <time>2017-11-04T09:51:54Z</time>
      </trkpt>
      <trkpt lat="59.8641827" lon="17.6105299">
        <ele>14.0764</ele>
        <time>2017-11-04T09:51:59Z</time>
      </trkpt>
      <trkpt lat="59.8643248" lon="17.6104657">
        <ele>13.1151</ele>
        <time>2017-11-04T09:52:06Z</time>
      </trkpt>
      <trkpt lat="59.8644437" lon="17.6103507">
        <ele>14.557</ele>
        <time>2017-11-04T09:52:12Z</time>
      </trkpt>
      <trkpt lat="59.864574" lon="17.610191">
        <ele>12.1538</ele>
        <time>2017-11-04T09:52:19Z</time>
      </trkpt>
      <trkpt lat="59.864633" lon="17.6101377">
        <ele>11.1925</ele>
        <time>2017-11-04T09:52:22Z</time>
      </trkpt>
      <trkpt lat="59.8647548" lon="17.6100436">
        <ele>12.6344</ele>
        <time>2017-11-04T09:52:28Z</time>
      </trkpt>
      <trkpt lat="59.864882" lon="17.6099393">
        <ele>12.6344</ele>
        <time>2017-11-04T09:52:34Z</time>
      </trkpt>
      <trkpt lat="59.8650018" lon="17.6098781">
        <ele>13.5958</ele>
        <time>2017-11-04T09:52:39Z</time>
      </trkpt>
      <trkpt lat="59.865136" lon="17.6098067">
        <ele>15.0377</ele>
        <time>2017-11-04T09:52:45Z</time>
      </trkpt>
      <trkpt lat="59.8652593" lon="17.6096802">
        <ele>17.9218</ele>
        <time>2017-11-04T09:52:52Z</time>
      </trkpt>
      <trkpt lat="59.8654079" lon="17.6096373">
        <ele>17.4412</ele>
        <time>2017-11-04T09:52:59Z</time>
      </trkpt>
      <trkpt lat="59.8655324" lon="17.6095509">
        <ele>17.9218</ele>
        <time>2017-11-04T09:53:05Z</time>
      </trkpt>
      <trkpt lat="59.865627" lon="17.6094316">
        <ele>17.9218</ele>
        <time>2017-11-04T09:53:10Z</time>
      </trkpt>
      <trkpt lat="59.8657928" lon="17.6092956">
        <ele>18.8831</ele>
        <time>2017-11-04T09:53:18Z</time>
      </trkpt>
      <trkpt lat="59.8658089" lon="17.6092671">
        <ele>18.8831</ele>
        <time>2017-11-04T09:53:19Z</time>
      </trkpt>
      <trkpt lat="59.8658731" lon="17.6090537">
        <ele>19.3638</ele>
        <time>2017-11-04T09:53:25Z</time>
      </trkpt>
      <trkpt lat="59.8659558" lon="17.6088691">
        <ele>18.4023</ele>
        <time>2017-11-04T09:53:31Z</time>
      </trkpt>
      <trkpt lat="59.8660947" lon="17.6088521">
        <ele>18.4023</ele>
        <time>2017-11-04T09:53:37Z</time>
      </trkpt>
      <trkpt lat="59.8662145" lon="17.6088609">
        <ele>19.3638</ele>
        <time>2017-11-04T09:53:42Z</time>
      </trkpt>
      <trkpt lat="59.8663079" lon="17.608793">
        <ele>20.325</ele>
        <time>2017-11-04T09:53:47Z</time>
      </trkpt>
      <trkpt lat="59.8663792" lon="17.6087122">
        <ele>20.8057</ele>
        <time>2017-11-04T09:53:51Z</time>
      </trkpt>
      <trkpt lat="59.8664466" lon="17.6086398">
        <ele>21.2864</ele>
        <time>2017-11-04T09:53:56Z</time>
      </trkpt>
      <trkpt lat="59.8665327" lon="17.6084704">
        <ele>23.6896</ele>
        <time>2017-11-04T09:54:02Z</time>
      </trkpt>
      <trkpt lat="59.866617" lon="17.6084084">
        <ele>22.2476</ele>
        <time>2017-11-04T09:54:06Z</time>
      </trkpt>
      <trkpt lat="59.866689" lon="17.6083517">
        <ele>22.7283</ele>
        <time>2017-11-04T09:54:10Z</time>
      </trkpt>
      <trkpt lat="59.8667791" lon="17.6082973">
        <ele>21.767</ele>
        <time>2017-11-04T09:54:16Z</time>
      </trkpt>
      <trkpt lat="59.8668652" lon="17.6082598">
        <ele>20.8057</ele>
        <time>2017-11-04T09:54:21Z</time>
      </trkpt>
      <trkpt lat="59.8669116" lon="17.6081946">
        <ele>19.3638</ele>
        <time>2017-11-04T09:54:23Z</time>
      </trkpt>
      <trkpt lat="59.8670133" lon="17.6079739">
        <ele>16.9604</ele>
        <time>2017-11-04T09:54:28Z</time>
      </trkpt>
      <trkpt lat="59.8671008" lon="17.6078021">
        <ele>17.4412</ele>
        <time>2017-11-04T09:54:33Z</time>
      </trkpt>
      <trkpt lat="59.8671547" lon="17.6077254">
        <ele>18.4023</ele>
        <time>2017-11-04T09:54:36Z</time>
      </trkpt>
      <trkpt lat="59.8671759" lon="17.6077099">
        <ele>18.4023</ele>
        <time>2017-11-04T09:54:37Z</time>
      </trkpt>
      <trkpt lat="59.8672448" lon="17.607649">
        <ele>17.9218</ele>
        <time>2017-11-04T09:54:40Z</time>
      </trkpt>
      <trkpt lat="59.8674048" lon="17.6075146">
        <ele>17.9218</ele>
        <time>2017-11-04T09:54:47Z</time>
      </trkpt>
      <trkpt lat="59.8675098" lon="17.6074077">
        <ele>18.4023</ele>
        <time>2017-11-04T09:54:52Z</time>
      </trkpt>
      <trkpt lat="59.8676404" lon="17.6073234">
        <ele>18.4023</ele>
        <time>2017-11-04T09:54:58Z</time>
      </trkpt>
      <trkpt lat="59.8677402" lon="17.6072037">
        <ele>17.9218</ele>
        <time>2017-11-04T09:55:03Z</time>
      </trkpt>
      <trkpt lat="59.8678633" lon="17.6070714">
        <ele>18.4023</ele>
        <time>2017-11-04T09:55:09Z</time>
      </trkpt>
      <trkpt lat="59.8679846" lon="17.6069401">
        <ele>18.8831</ele>
        <time>2017-11-04T09:55:15Z</time>
      </trkpt>
      <trkpt lat="59.868026" lon="17.6069024">
        <ele>18.8831</ele>
        <time>2017-11-04T09:55:17Z</time>
      </trkpt>
      <trkpt lat="59.868099" lon="17.6067261">
        <ele>16.9604</ele>
        <time>2017-11-04T09:55:22Z</time>
      </trkpt>
      <trkpt lat="59.8682113" lon="17.6065301">
        <ele>16.4797</ele>
        <time>2017-11-04T09:55:29Z</time>
      </trkpt>
      <trkpt lat="59.8683299" lon="17.6064239">
        <ele>16.4797</ele>
        <time>2017-11-04T09:55:35Z</time>
      </trkpt>
      <trkpt lat="59.8684026" lon="17.6062594">
        <ele>17.9218</ele>
        <time>2017-11-04T09:55:40Z</time>
      </trkpt>
      <trkpt lat="59.8684718" lon="17.6060905">
        <ele>19.3638</ele>
        <time>2017-11-04T09:55:45Z</time>
      </trkpt>
      <trkpt lat="59.8686165" lon="17.6060258">
        <ele>19.3638</ele>
        <time>2017-11-04T09:55:51Z</time>
      </trkpt>
      <trkpt lat="59.8687626" lon="17.6060588">
        <ele>19.8444</ele>
        <time>2017-11-04T09:55:57Z</time>
      </trkpt>
      <trkpt lat="59.8688606" lon="17.6059661">
        <ele>18.8831</ele>
        <time>2017-11-04T09:56:02Z</time>
      </trkpt>
      <trkpt lat="59.8689478" lon="17.6058617">
        <ele>16.4797</ele>
        <time>2017-11-04T09:56:07Z</time>
      </trkpt>
      <trkpt lat="59.8690366" lon="17.605773">
        <ele>15.0377</ele>
        <time>2017-11-04T09:56:12Z</time>
      </trkpt>
      <trkpt lat="59.8691489" lon="17.6056507">
        <ele>14.557</ele>
        <time>2017-11-04T09:56:18Z</time>
      </trkpt>
      <trkpt lat="59.8692825" lon="17.6054803">
        <ele>12.6344</ele>
        <time>2017-11-04T09:56:25Z</time>
      </trkpt>
      <trkpt lat="59.8693907" lon="17.6053451">
        <ele>12.6344</ele>
        <time>2017-11-04T09:56:31Z</time>
      </trkpt>
      <trkpt lat="59.8695244" lon="17.6051675">
        <ele>12.1538</ele>
        <time>2017-11-04T09:56:38Z</time>
      </trkpt>
      <trkpt lat="59.8696556" lon="17.6050555">
        <ele>12.6344</ele>
        <time>2017-11-04T09:56:44Z</time>
      </trkpt>
      <trkpt lat="59.8697684" lon="17.6049716">
        <ele>13.5958</ele>
        <time>2017-11-04T09:56:49Z</time>
      </trkpt>
      <trkpt lat="59.8699095" lon="17.6050158">
        <ele>14.557</ele>
        <time>2017-11-04T09:56:54Z</time>
      </trkpt>
      <trkpt lat="59.8699878" lon="17.6049119">
        <ele>14.557</ele>
        <time>2017-11-04T09:56:58Z</time>
      </trkpt>
      <trkpt lat="59.8700261" lon="17.6048639">
        <ele>14.557</ele>
        <time>2017-11-04T09:57:00Z</time>
      </trkpt>
      <trkpt lat="59.8701699" lon="17.6046499">
        <ele>14.557</ele>
        <time>2017-11-04T09:57:08Z</time>
      </trkpt>
      <trkpt lat="59.8702991" lon="17.6044075">
        <ele>14.557</ele>
        <time>2017-11-04T09:57:16Z</time>
      </trkpt>
      <trkpt lat="59.8704296" lon="17.6041408">
        <ele>15.999</ele>
        <time>2017-11-04T09:57:24Z</time>
      </trkpt>
      <trkpt lat="59.8705725" lon="17.6039045">
        <ele>15.0377</ele>
        <time>2017-11-04T09:57:32Z</time>
      </trkpt>
      <trkpt lat="59.8706776" lon="17.6036694">
        <ele>15.5184</ele>
        <time>2017-11-04T09:57:39Z</time>
      </trkpt>
      <trkpt lat="59.8707831" lon="17.6034181">
        <ele>15.5184</ele>
        <time>2017-11-04T09:57:46Z</time>
      </trkpt>
      <trkpt lat="59.870856" lon="17.603197">
        <ele>15.999</ele>
        <time>2017-11-04T09:57:52Z</time>
      </trkpt>
      <trkpt lat="59.8709448" lon="17.6028802">
        <ele>15.5184</ele>
        <time>2017-11-04T09:58:00Z</time>
      </trkpt>
      <trkpt lat="59.8710152" lon="17.6026218">
        <ele>15.999</ele>
        <time>2017-11-04T09:58:07Z</time>
      </trkpt>
      <trkpt lat="59.8710598" lon="17.6024239">
        <ele>15.999</ele>
        <time>2017-11-04T09:58:12Z</time>
      </trkpt>
      <trkpt lat="59.8711474" lon="17.6022187">
        <ele>15.5184</ele>
        <time>2017-11-04T09:58:18Z</time>
      </trkpt>
      <trkpt lat="59.8712149" lon="17.6019838">
        <ele>15.5184</ele>
        <time>2017-11-04T09:58:24Z</time>
      </trkpt>
      <trkpt lat="59.8712734" lon="17.6016828">
        <ele>15.5184</ele>
        <time>2017-11-04T09:58:31Z</time>
      </trkpt>
      <trkpt lat="59.8713339" lon="17.6014393">
        <ele>16.4797</ele>
        <time>2017-11-04T09:58:37Z</time>
      </trkpt>
      <trkpt lat="59.8714142" lon="17.6012248">
        <ele>16.4797</ele>
        <time>2017-11-04T09:58:43Z</time>
      </trkpt>
      <trkpt lat="59.8715173" lon="17.6009431">
        <ele>15.999</ele>
        <time>2017-11-04T09:58:51Z</time>
      </trkpt>
      <trkpt lat="59.8716127" lon="17.6006964">
        <ele>15.999</ele>
        <time>2017-11-04T09:58:58Z</time>
      </trkpt>
      <trkpt lat="59.8717029" lon="17.6004497">
        <ele>15.999</ele>
        <time>2017-11-04T09:59:05Z</time>
      </trkpt>
      <trkpt lat="59.871768" lon="17.6002536">
        <ele>15.999</ele>
        <time>2017-11-04T09:59:11Z</time>
      </trkpt>
      <trkpt lat="59.8718648" lon="17.6000517">
        <ele>13.1151</ele>
        <time>2017-11-04T09:59:18Z</time>
      </trkpt>
      <trkpt lat="59.8719248" lon="17.5999232">
        <ele>11.6732</ele>
        <time>2017-11-04T09:59:22Z</time>
      </trkpt>
      <trkpt lat="59.8720443" lon="17.5997014">
        <ele>11.6732</ele>
        <time>2017-11-04T09:59:29Z</time>
      </trkpt>
      <trkpt lat="59.8721582" lon="17.5994294">
        <ele>13.5958</ele>
        <time>2017-11-04T09:59:37Z</time>
      </trkpt>
      <trkpt lat="59.8722598" lon="17.5992184">
        <ele>15.5184</ele>
        <time>2017-11-04T09:59:44Z</time>
      </trkpt>
      <trkpt lat="59.8723585" lon="17.598999">
        <ele>16.4797</ele>
        <time>2017-11-04T09:59:51Z</time>
      </trkpt>
      <trkpt lat="59.8724638" lon="17.5988084">
        <ele>16.9604</ele>
        <time>2017-11-04T09:59:58Z</time>
      </trkpt>
      <trkpt lat="59.8724781" lon="17.5987861">
        <ele>16.9604</ele>
        <time>2017-11-04T09:59:59Z</time>
      </trkpt>
      <trkpt lat="59.8724492" lon="17.5986063">
        <ele>17.4412</ele>
        <time>2017-11-04T10:00:04Z</time>
      </trkpt>
      <trkpt lat="59.8724214" lon="17.5984979">
        <ele>17.9218</ele>
        <time>2017-11-04T10:00:07Z</time>
      </trkpt>
      <trkpt lat="59.8723479" lon="17.5982888">
        <ele>18.8831</ele>
        <time>2017-11-04T10:00:12Z</time>
      </trkpt>
      <trkpt lat="59.8723484" lon="17.5982425">
        <ele>18.4023</ele>
        <time>2017-11-04T10:00:13Z</time>
      </trkpt>
      <trkpt lat="59.8723375" lon="17.598012">
        <ele>19.3638</ele>
        <time>2017-11-04T10:00:19Z</time>
      </trkpt>
      <trkpt lat="59.8723005" lon="17.5977537">
        <ele>20.325</ele>
        <time>2017-11-04T10:00:26Z</time>
      </trkpt>
      <trkpt lat="59.8723048" lon="17.5976375">
        <ele>21.2864</ele>
        <time>2017-11-04T10:00:29Z</time>
      </trkpt>
      <trkpt lat="59.8722513" lon="17.5974289">
        <ele>21.767</ele>
        <time>2017-11-04T10:00:35Z</time>
      </trkpt>
      <trkpt lat="59.872178" lon="17.5972506">
        <ele>23.209</ele>
        <time>2017-11-04T10:00:42Z</time>
      </trkpt>
      <trkpt lat="59.8720987" lon="17.5970539">
        <ele>24.1703</ele>
        <time>2017-11-04T10:00:49Z</time>
      </trkpt>
      <trkpt lat="59.8720245" lon="17.5968643">
        <ele>26.0929</ele>
        <time>2017-11-04T10:00:55Z</time>
      </trkpt>
      <trkpt lat="59.8719725" lon="17.5966436">
        <ele>26.5736</ele>
        <time>2017-11-04T10:01:01Z</time>
      </trkpt>
      <trkpt lat="59.8719432" lon="17.5963567">
        <ele>27.0543</ele>
        <time>2017-11-04T10:01:08Z</time>
      </trkpt>
      <trkpt lat="59.8719293" lon="17.5960651">
        <ele>27.0543</ele>
        <time>2017-11-04T10:01:15Z</time>
      </trkpt>
      <trkpt lat="59.8719096" lon="17.5957401">
        <ele>27.5349</ele>
        <time>2017-11-04T10:01:23Z</time>
      </trkpt>
      <trkpt lat="59.8718715" lon="17.595506">
        <ele>28.0155</ele>
        <time>2017-11-04T10:01:29Z</time>
      </trkpt>
      <trkpt lat="59.8718444" lon="17.5952668">
        <ele>28.0155</ele>
        <time>2017-11-04T10:01:35Z</time>
      </trkpt>
      <trkpt lat="59.8718589" lon="17.5949699">
        <ele>28.9769</ele>
        <time>2017-11-04T10:01:42Z</time>
      </trkpt>
      <trkpt lat="59.8718418" lon="17.5946882">
        <ele>29.9381</ele>
        <time>2017-11-04T10:01:49Z</time>
      </trkpt>
      <trkpt lat="59.8718173" lon="17.5943592">
        <ele>30.8995</ele>
        <time>2017-11-04T10:01:57Z</time>
      </trkpt>
      <trkpt lat="59.8717845" lon="17.5941208">
        <ele>31.3801</ele>
        <time>2017-11-04T10:02:03Z</time>
      </trkpt>
      <trkpt lat="59.8717606" lon="17.5938677">
        <ele>30.8995</ele>
        <time>2017-11-04T10:02:09Z</time>
      </trkpt>
      <trkpt lat="59.8717112" lon="17.5935773">
        <ele>30.8995</ele>
        <time>2017-11-04T10:02:16Z</time>
      </trkpt>
      <trkpt lat="59.8716599" lon="17.5933277">
        <ele>30.4188</ele>
        <time>2017-11-04T10:02:22Z</time>
      </trkpt>
      <trkpt lat="59.8715986" lon="17.5930282">
        <ele>29.9381</ele>
        <time>2017-11-04T10:02:29Z</time>
      </trkpt>
      <trkpt lat="59.8715458" lon="17.5927164">
        <ele>29.4575</ele>
        <time>2017-11-04T10:02:36Z</time>
      </trkpt>
      <trkpt lat="59.8714879" lon="17.5924447">
        <ele>28.0155</ele>
        <time>2017-11-04T10:02:42Z</time>
      </trkpt>
      <trkpt lat="59.8714001" lon="17.5922166">
        <ele>27.5349</ele>
        <time>2017-11-04T10:02:48Z</time>
      </trkpt>
      <trkpt lat="59.8712385" lon="17.5919297">
        <ele>26.5736</ele>
        <time>2017-11-04T10:02:57Z</time>
      </trkpt>
      <trkpt lat="59.8710883" lon="17.5917142">
        <ele>26.0929</ele>
        <time>2017-11-04T10:03:05Z</time>
      </trkpt>
      <trkpt lat="59.8709619" lon="17.5915402">
        <ele>26.0929</ele>
        <time>2017-11-04T10:03:12Z</time>
      </trkpt>
      <trkpt lat="59.8707943" lon="17.591317">
        <ele>26.0929</ele>
        <time>2017-11-04T10:03:21Z</time>
      </trkpt>
      <trkpt lat="59.8706818" lon="17.5911694">
        <ele>25.6123</ele>
        <time>2017-11-04T10:03:27Z</time>
      </trkpt>
      <trkpt lat="59.8705766" lon="17.5910169">
        <ele>25.6123</ele>
        <time>2017-11-04T10:03:33Z</time>
      </trkpt>
      <trkpt lat="59.8704511" lon="17.5908259">
        <ele>25.1317</ele>
        <time>2017-11-04T10:03:40Z</time>
      </trkpt>
      <trkpt lat="59.8703245" lon="17.5905812">
        <ele>25.6123</ele>
        <time>2017-11-04T10:03:48Z</time>
      </trkpt>
      <trkpt lat="59.8701882" lon="17.5902465">
        <ele>25.1317</ele>
        <time>2017-11-04T10:03:58Z</time>
      </trkpt>
      <trkpt lat="59.8701109" lon="17.5900274">
        <ele>25.6123</ele>
        <time>2017-11-04T10:04:04Z</time>
      </trkpt>
      <trkpt lat="59.8700284" lon="17.5897977">
        <ele>25.6123</ele>
        <time>2017-11-04T10:04:10Z</time>
      </trkpt>
      <trkpt lat="59.86993" lon="17.5895342">
        <ele>25.1317</ele>
        <time>2017-11-04T10:04:17Z</time>
      </trkpt>
      <trkpt lat="59.8698296" lon="17.5892858">
        <ele>25.6123</ele>
        <time>2017-11-04T10:04:24Z</time>
      </trkpt>
      <trkpt lat="59.86971" lon="17.5890449">
        <ele>25.1317</ele>
        <time>2017-11-04T10:04:31Z</time>
      </trkpt>
      <trkpt lat="59.8696189" lon="17.5889507">
        <ele>24.651</ele>
        <time>2017-11-04T10:04:36Z</time>
      </trkpt>
      <trkpt lat="59.8694892" lon="17.5889961">
        <ele>23.6896</ele>
        <time>2017-11-04T10:04:42Z</time>
      </trkpt>
      <trkpt lat="59.8693349" lon="17.5890755">
        <ele>23.209</ele>
        <time>2017-11-04T10:04:49Z</time>
      </trkpt>
      <trkpt lat="59.8691841" lon="17.5891578">
        <ele>22.7283</ele>
        <time>2017-11-04T10:04:56Z</time>
      </trkpt>
      <trkpt lat="59.8690557" lon="17.5892055">
        <ele>23.209</ele>
        <time>2017-11-04T10:05:02Z</time>
      </trkpt>
      <trkpt lat="59.8689926" lon="17.5892467">
        <ele>22.7283</ele>
        <time>2017-11-04T10:05:05Z</time>
      </trkpt>
      <trkpt lat="59.8688637" lon="17.5894861">
        <ele>23.6896</ele>
        <time>2017-11-04T10:05:13Z</time>
      </trkpt>
      <trkpt lat="59.8687434" lon="17.5895743">
        <ele>23.6896</ele>
        <time>2017-11-04T10:05:19Z</time>
      </trkpt>
      <trkpt lat="59.8685736" lon="17.5896649">
        <ele>22.7283</ele>
        <time>2017-11-04T10:05:27Z</time>
      </trkpt>
      <trkpt lat="59.8684272" lon="17.5897887">
        <ele>21.767</ele>
        <time>2017-11-04T10:05:34Z</time>
      </trkpt>
      <trkpt lat="59.8682822" lon="17.5898689">
        <ele>19.3638</ele>
        <time>2017-11-04T10:05:41Z</time>
      </trkpt>
      <trkpt lat="59.8681639" lon="17.5898913">
        <ele>17.9218</ele>
        <time>2017-11-04T10:05:47Z</time>
      </trkpt>
      <trkpt lat="59.8681506" lon="17.5898866">
        <ele>17.9218</ele>
        <time>2017-11-04T10:05:48Z</time>
      </trkpt>
      <trkpt lat="59.868137" lon="17.5898571">
        <ele>18.4023</ele>
        <time>2017-11-04T10:05:52Z</time>
      </trkpt>
      <trkpt lat="59.8680437" lon="17.5898994">
        <ele>22.7283</ele>
        <time>2017-11-04T10:06:33Z</time>
      </trkpt>
      <trkpt lat="59.8679995" lon="17.5899234">
        <ele>22.2476</ele>
        <time>2017-11-04T10:06:35Z</time>
      </trkpt>
      <trkpt lat="59.867983" lon="17.5899175">
        <ele>20.8057</ele>
        <time>2017-11-04T10:06:39Z</time>
      </trkpt>
      <trkpt lat="59.8678162" lon="17.5899131">
        <ele>20.8057</ele>
        <time>2017-11-04T10:06:57Z</time>
      </trkpt>
      <trkpt lat="59.8676908" lon="17.589914">
        <ele>21.2864</ele>
        <time>2017-11-04T10:07:03Z</time>
      </trkpt>
      <trkpt lat="59.867562" lon="17.5899649">
        <ele>21.767</ele>
        <time>2017-11-04T10:07:09Z</time>
      </trkpt>
      <trkpt lat="59.8674526" lon="17.5900307">
        <ele>21.2864</ele>
        <time>2017-11-04T10:07:14Z</time>
      </trkpt>
      <trkpt lat="59.8672626" lon="17.5901481">
        <ele>19.3638</ele>
        <time>2017-11-04T10:07:22Z</time>
      </trkpt>
      <trkpt lat="59.8671086" lon="17.5902887">
        <ele>17.9218</ele>
        <time>2017-11-04T10:07:29Z</time>
      </trkpt>
      <trkpt lat="59.8670117" lon="17.5903954">
        <ele>16.4797</ele>
        <time>2017-11-04T10:07:34Z</time>
      </trkpt>
      <trkpt lat="59.8669568" lon="17.5904511">
        <ele>15.5184</ele>
        <time>2017-11-04T10:07:37Z</time>
      </trkpt>
      <trkpt lat="59.8669138" lon="17.5904478">
        <ele>15.5184</ele>
        <time>2017-11-04T10:07:42Z</time>
      </trkpt>
      <trkpt lat="59.8669341" lon="17.5904454">
        <ele>14.557</ele>
        <time>2017-11-04T10:07:47Z</time>
      </trkpt>
      <trkpt lat="59.8668714" lon="17.5904929">
        <ele>19.8444</ele>
        <time>2017-11-04T10:09:39Z</time>
      </trkpt>
      <trkpt lat="59.8667909" lon="17.5904652">
        <ele>19.8444</ele>
        <time>2017-11-04T10:09:42Z</time>
      </trkpt>
      <trkpt lat="59.8667196" lon="17.590468">
        <ele>19.8444</ele>
        <time>2017-11-04T10:09:46Z</time>
      </trkpt>
      <trkpt lat="59.8666502" lon="17.5904792">
        <ele>19.8444</ele>
        <time>2017-11-04T10:09:51Z</time>
      </trkpt>
      <trkpt lat="59.8665194" lon="17.5905171">
        <ele>21.2864</ele>
        <time>2017-11-04T10:09:59Z</time>
      </trkpt>
      <trkpt lat="59.8664025" lon="17.5905364">
        <ele>21.2864</ele>
        <time>2017-11-04T10:10:05Z</time>
      </trkpt>
      <trkpt lat="59.8662825" lon="17.5905591">
        <ele>20.325</ele>
        <time>2017-11-04T10:10:11Z</time>
      </trkpt>
      <trkpt lat="59.8661125" lon="17.5905882">
        <ele>19.3638</ele>
        <time>2017-11-04T10:10:19Z</time>
      </trkpt>
      <trkpt lat="59.8659598" lon="17.5906248">
        <ele>19.8444</ele>
        <time>2017-11-04T10:10:26Z</time>
      </trkpt>
      <trkpt lat="59.8658623" lon="17.5907319">
        <ele>20.8057</ele>
        <time>2017-11-04T10:10:31Z</time>
      </trkpt>
      <trkpt lat="59.8657562" lon="17.5909082">
        <ele>21.2864</ele>
        <time>2017-11-04T10:10:37Z</time>
      </trkpt>
      <trkpt lat="59.8656198" lon="17.5911445">
        <ele>22.2476</ele>
        <time>2017-11-04T10:10:45Z</time>
      </trkpt>
      <trkpt lat="59.8655043" lon="17.5913501">
        <ele>22.7283</ele>
        <time>2017-11-04T10:10:52Z</time>
      </trkpt>
      <trkpt lat="59.8653844" lon="17.5915215">
        <ele>23.209</ele>
        <time>2017-11-04T10:10:59Z</time>
      </trkpt>
      <trkpt lat="59.8652381" lon="17.5915206">
        <ele>23.6896</ele>
        <time>2017-11-04T10:11:06Z</time>
      </trkpt>
      <trkpt lat="59.8650874" lon="17.5915089">
        <ele>23.6896</ele>
        <time>2017-11-04T10:11:13Z</time>
      </trkpt>
      <trkpt lat="59.8649511" lon="17.59152">
        <ele>24.1703</ele>
        <time>2017-11-04T10:11:19Z</time>
      </trkpt>
      <trkpt lat="59.8648489" lon="17.5915343">
        <ele>25.1317</ele>
        <time>2017-11-04T10:11:24Z</time>
      </trkpt>
      <trkpt lat="59.864737" lon="17.5915459">
        <ele>24.1703</ele>
        <time>2017-11-04T10:11:29Z</time>
      </trkpt>
      <trkpt lat="59.8645967" lon="17.5915985">
        <ele>23.209</ele>
        <time>2017-11-04T10:11:35Z</time>
      </trkpt>
      <trkpt lat="59.8644625" lon="17.5916275">
        <ele>24.1703</ele>
        <time>2017-11-04T10:11:41Z</time>
      </trkpt>
      <trkpt lat="59.8643771" lon="17.5916088">
        <ele>25.6123</ele>
        <time>2017-11-04T10:11:45Z</time>
      </trkpt>
      <trkpt lat="59.8643005" lon="17.5914654">
        <ele>26.5736</ele>
        <time>2017-11-04T10:11:50Z</time>
      </trkpt>
      <trkpt lat="59.8643004" lon="17.5912984">
        <ele>26.5736</ele>
        <time>2017-11-04T10:11:54Z</time>
      </trkpt>
      <trkpt lat="59.8643242" lon="17.5909857">
        <ele>28.9769</ele>
        <time>2017-11-04T10:12:02Z</time>
      </trkpt>
      <trkpt lat="59.8643546" lon="17.5907703">
        <ele>29.4575</ele>
        <time>2017-11-04T10:12:07Z</time>
      </trkpt>
      <trkpt lat="59.8644553" lon="17.5905723">
        <ele>28.0155</ele>
        <time>2017-11-04T10:12:13Z</time>
      </trkpt>
      <trkpt lat="59.864591" lon="17.5905299">
        <ele>28.0155</ele>
        <time>2017-11-04T10:12:19Z</time>
      </trkpt>
      <trkpt lat="59.8647502" lon="17.5904814">
        <ele>28.0155</ele>
        <time>2017-11-04T10:12:26Z</time>
      </trkpt>
      <trkpt lat="59.8648971" lon="17.5904631">
        <ele>30.4188</ele>
        <time>2017-11-04T10:12:33Z</time>
      </trkpt>
      <trkpt lat="59.8650127" lon="17.5905575">
        <ele>31.8607</ele>
        <time>2017-11-04T10:12:40Z</time>
      </trkpt>
      <trkpt lat="59.8651257" lon="17.5906654">
        <ele>31.3801</ele>
        <time>2017-11-04T10:12:47Z</time>
      </trkpt>
      <trkpt lat="59.8652012" lon="17.5905462">
        <ele>31.8607</ele>
        <time>2017-11-04T10:12:52Z</time>
      </trkpt>
      <trkpt lat="59.8652666" lon="17.5903592">
        <ele>33.7834</ele>
        <time>2017-11-04T10:12:59Z</time>
      </trkpt>
      <trkpt lat="59.8652697" lon="17.5903426">
        <ele>34.2642</ele>
        <time>2017-11-04T10:13:00Z</time>
      </trkpt>
      <trkpt lat="59.8652632" lon="17.5902766">
        <ele>35.7061</ele>
        <time>2017-11-04T10:13:06Z</time>
      </trkpt>
      <trkpt lat="59.8652608" lon="17.5902711">
        <ele>35.7061</ele>
        <time>2017-11-04T10:13:08Z</time>
      </trkpt>
      <trkpt lat="59.8652666" lon="17.5903613">
        <ele>34.2642</ele>
        <time>2017-11-04T10:22:52Z</time>
      </trkpt>
      <trkpt lat="59.8651882" lon="17.5905519">
        <ele>30.8995</ele>
        <time>2017-11-04T10:22:58Z</time>
      </trkpt>
      <trkpt lat="59.8650961" lon="17.5906229">
        <ele>29.4575</ele>
        <time>2017-11-04T10:23:03Z</time>
      </trkpt>
      <trkpt lat="59.8649939" lon="17.5905508">
        <ele>29.9381</ele>
        <time>2017-11-04T10:23:09Z</time>
      </trkpt>
      <trkpt lat="59.8648696" lon="17.590457">
        <ele>28.0155</ele>
        <time>2017-11-04T10:23:15Z</time>
      </trkpt>
      <trkpt lat="59.8647232" lon="17.5904694">
        <ele>27.0543</ele>
        <time>2017-11-04T10:23:21Z</time>
      </trkpt>
      <trkpt lat="59.8645926" lon="17.5905045">
        <ele>27.0543</ele>
        <time>2017-11-04T10:23:27Z</time>
      </trkpt>
      <trkpt lat="59.8644368" lon="17.590564">
        <ele>27.0543</ele>
        <time>2017-11-04T10:23:34Z</time>
      </trkpt>
      <trkpt lat="59.8643558" lon="17.590779">
        <ele>27.0543</ele>
        <time>2017-11-04T10:23:40Z</time>
      </trkpt>
      <trkpt lat="59.8643238" lon="17.5910549">
        <ele>27.0543</ele>
        <time>2017-11-04T10:23:46Z</time>
      </trkpt>
      <trkpt lat="59.8642855" lon="17.5913666">
        <ele>25.6123</ele>
        <time>2017-11-04T10:23:53Z</time>
      </trkpt>
      <trkpt lat="59.8642715" lon="17.5914631">
        <ele>25.6123</ele>
        <time>2017-11-04T10:23:55Z</time>
      </trkpt>
      <trkpt lat="59.8641791" lon="17.5915535">
        <ele>25.1317</ele>
        <time>2017-11-04T10:24:00Z</time>
      </trkpt>
      <trkpt lat="59.864115" lon="17.5915382">
        <ele>24.651</ele>
        <time>2017-11-04T10:24:03Z</time>
      </trkpt>
      <trkpt lat="59.863984" lon="17.591539">
        <ele>22.2476</ele>
        <time>2017-11-04T10:24:09Z</time>
      </trkpt>
      <trkpt lat="59.86387" lon="17.5914469">
        <ele>21.767</ele>
        <time>2017-11-04T10:24:14Z</time>
      </trkpt>
      <trkpt lat="59.863727" lon="17.5913395">
        <ele>22.2476</ele>
        <time>2017-11-04T10:24:20Z</time>
      </trkpt>
      <trkpt lat="59.863583" lon="17.5912326">
        <ele>22.2476</ele>
        <time>2017-11-04T10:24:26Z</time>
      </trkpt>
      <trkpt lat="59.8634885" lon="17.5911585">
        <ele>22.7283</ele>
        <time>2017-11-04T10:24:30Z</time>
      </trkpt>
      <trkpt lat="59.8633275" lon="17.5910523">
        <ele>22.2476</ele>
        <time>2017-11-04T10:24:37Z</time>
      </trkpt>
      <trkpt lat="59.8631671" lon="17.5909451">
        <ele>22.2476</ele>
        <time>2017-11-04T10:24:44Z</time>
      </trkpt>
      <trkpt lat="59.862981" lon="17.5908174">
        <ele>21.2864</ele>
        <time>2017-11-04T10:24:52Z</time>
      </trkpt>
      <trkpt lat="59.8628214" lon="17.5906998">
        <ele>21.767</ele>
        <time>2017-11-04T10:24:59Z</time>
      </trkpt>
      <trkpt lat="59.8626131" lon="17.5905534">
        <ele>21.2864</ele>
        <time>2017-11-04T10:25:08Z</time>
      </trkpt>
      <trkpt lat="59.8624963" lon="17.5904762">
        <ele>21.767</ele>
        <time>2017-11-04T10:25:13Z</time>
      </trkpt>
      <trkpt lat="59.8623647" lon="17.5903651">
        <ele>21.767</ele>
        <time>2017-11-04T10:25:19Z</time>
      </trkpt>
      <trkpt lat="59.862216" lon="17.590241">
        <ele>22.7283</ele>
        <time>2017-11-04T10:25:26Z</time>
      </trkpt>
      <trkpt lat="59.8620412" lon="17.5901289">
        <ele>22.2476</ele>
        <time>2017-11-04T10:25:34Z</time>
      </trkpt>
      <trkpt lat="59.8618726" lon="17.5900137">
        <ele>22.7283</ele>
        <time>2017-11-04T10:25:42Z</time>
      </trkpt>
      <trkpt lat="59.8617239" lon="17.5899116">
        <ele>22.2476</ele>
        <time>2017-11-04T10:25:49Z</time>
      </trkpt>
      <trkpt lat="59.8615576" lon="17.589791">
        <ele>21.2864</ele>
        <time>2017-11-04T10:25:57Z</time>
      </trkpt>
      <trkpt lat="59.861457" lon="17.5896769">
        <ele>21.2864</ele>
        <time>2017-11-04T10:26:02Z</time>
      </trkpt>
      <trkpt lat="59.8612982" lon="17.5895829">
        <ele>21.2864</ele>
        <time>2017-11-04T10:26:09Z</time>
      </trkpt>
      <trkpt lat="59.8611264" lon="17.589509">
        <ele>21.767</ele>
        <time>2017-11-04T10:26:16Z</time>
      </trkpt>
      <trkpt lat="59.8609601" lon="17.5894467">
        <ele>22.2476</ele>
        <time>2017-11-04T10:26:23Z</time>
      </trkpt>
      <trkpt lat="59.8608025" lon="17.5893998">
        <ele>22.7283</ele>
        <time>2017-11-04T10:26:30Z</time>
      </trkpt>
      <trkpt lat="59.8606382" lon="17.5892406">
        <ele>23.209</ele>
        <time>2017-11-04T10:26:38Z</time>
      </trkpt>
      <trkpt lat="59.8605138" lon="17.5891141">
        <ele>22.7283</ele>
        <time>2017-11-04T10:26:44Z</time>
      </trkpt>
      <trkpt lat="59.8603397" lon="17.5889543">
        <ele>22.7283</ele>
        <time>2017-11-04T10:26:52Z</time>
      </trkpt>
      <trkpt lat="59.8602051" lon="17.5888574">
        <ele>22.7283</ele>
        <time>2017-11-04T10:26:58Z</time>
      </trkpt>
      <trkpt lat="59.8600681" lon="17.5887746">
        <ele>22.2476</ele>
        <time>2017-11-04T10:27:04Z</time>
      </trkpt>
      <trkpt lat="59.8599524" lon="17.5886515">
        <ele>23.6896</ele>
        <time>2017-11-04T10:27:10Z</time>
      </trkpt>
      <trkpt lat="59.8598797" lon="17.5884697">
        <ele>25.1317</ele>
        <time>2017-11-04T10:27:15Z</time>
      </trkpt>
      <trkpt lat="59.8597776" lon="17.5882254">
        <ele>24.1703</ele>
        <time>2017-11-04T10:27:22Z</time>
      </trkpt>
      <trkpt lat="59.8596675" lon="17.5880659">
        <ele>23.209</ele>
        <time>2017-11-04T10:27:28Z</time>
      </trkpt>
      <trkpt lat="59.8595431" lon="17.5879421">
        <ele>23.209</ele>
        <time>2017-11-04T10:27:34Z</time>
      </trkpt>
      <trkpt lat="59.859423" lon="17.5877432">
        <ele>24.1703</ele>
        <time>2017-11-04T10:27:41Z</time>
      </trkpt>
      <trkpt lat="59.8592965" lon="17.5874713">
        <ele>24.651</ele>
        <time>2017-11-04T10:27:49Z</time>
      </trkpt>
      <trkpt lat="59.8592072" lon="17.5872588">
        <ele>26.0929</ele>
        <time>2017-11-04T10:27:55Z</time>
      </trkpt>
      <trkpt lat="59.8591079" lon="17.5870879">
        <ele>28.0155</ele>
        <time>2017-11-04T10:28:01Z</time>
      </trkpt>
      <trkpt lat="59.8589878" lon="17.5869158">
        <ele>28.9769</ele>
        <time>2017-11-04T10:28:08Z</time>
      </trkpt>
      <trkpt lat="59.8588551" lon="17.5867249">
        <ele>29.4575</ele>
        <time>2017-11-04T10:28:15Z</time>
      </trkpt>
      <trkpt lat="59.8587339" lon="17.5865653">
        <ele>29.4575</ele>
        <time>2017-11-04T10:28:21Z</time>
      </trkpt>
      <trkpt lat="59.8586132" lon="17.5864119">
        <ele>29.9381</ele>
        <time>2017-11-04T10:28:27Z</time>
      </trkpt>
      <trkpt lat="59.858447" lon="17.5862698">
        <ele>29.4575</ele>
        <time>2017-11-04T10:28:35Z</time>
      </trkpt>
      <trkpt lat="59.8582968" lon="17.5862347">
        <ele>29.9381</ele>
        <time>2017-11-04T10:28:42Z</time>
      </trkpt>
      <trkpt lat="59.8581652" lon="17.5861902">
        <ele>28.9769</ele>
        <time>2017-11-04T10:28:48Z</time>
      </trkpt>
      <trkpt lat="59.8580196" lon="17.5861319">
        <ele>28.9769</ele>
        <time>2017-11-04T10:28:55Z</time>
      </trkpt>
      <trkpt lat="59.8578612" lon="17.5860617">
        <ele>29.4575</ele>
        <time>2017-11-04T10:29:03Z</time>
      </trkpt>
      <trkpt lat="59.8577041" lon="17.5860171">
        <ele>29.9381</ele>
        <time>2017-11-04T10:29:10Z</time>
      </trkpt>
      <trkpt lat="59.8576383" lon="17.5859869">
        <ele>29.9381</ele>
        <time>2017-11-04T10:29:13Z</time>
      </trkpt>
      <trkpt lat="59.8575402" lon="17.5857968">
        <ele>29.9381</ele>
        <time>2017-11-04T10:29:19Z</time>
      </trkpt>
      <trkpt lat="59.8575233" lon="17.5857649">
        <ele>29.4575</ele>
        <time>2017-11-04T10:29:20Z</time>
      </trkpt>
      <trkpt lat="59.8574078" lon="17.5856369">
        <ele>30.4188</ele>
        <time>2017-11-04T10:29:26Z</time>
      </trkpt>
      <trkpt lat="59.8572789" lon="17.5855789">
        <ele>30.8995</ele>
        <time>2017-11-04T10:29:32Z</time>
      </trkpt>
      <trkpt lat="59.857083" lon="17.5854731">
        <ele>31.3801</ele>
        <time>2017-11-04T10:29:41Z</time>
      </trkpt>
      <trkpt lat="59.856894" lon="17.5853858">
        <ele>30.4188</ele>
        <time>2017-11-04T10:29:49Z</time>
      </trkpt>
      <trkpt lat="59.8567293" lon="17.5852979">
        <ele>28.9769</ele>
        <time>2017-11-04T10:29:56Z</time>
      </trkpt>
      <trkpt lat="59.8565573" lon="17.585205">
        <ele>28.4962</ele>
        <time>2017-11-04T10:30:03Z</time>
      </trkpt>
      <trkpt lat="59.8563915" lon="17.5851138">
        <ele>27.5349</ele>
        <time>2017-11-04T10:30:10Z</time>
      </trkpt>
      <trkpt lat="59.8561802" lon="17.5849897">
        <ele>26.5736</ele>
        <time>2017-11-04T10:30:19Z</time>
      </trkpt>
      <trkpt lat="59.8560596" lon="17.584849">
        <ele>26.5736</ele>
        <time>2017-11-04T10:30:25Z</time>
      </trkpt>
      <trkpt lat="59.8559874" lon="17.5846087">
        <ele>26.0929</ele>
        <time>2017-11-04T10:30:31Z</time>
      </trkpt>
      <trkpt lat="59.8559226" lon="17.5843472">
        <ele>26.0929</ele>
        <time>2017-11-04T10:30:37Z</time>
      </trkpt>
      <trkpt lat="59.8558826" lon="17.5840682">
        <ele>26.5736</ele>
        <time>2017-11-04T10:30:43Z</time>
      </trkpt>
      <trkpt lat="59.8558332" lon="17.583745">
        <ele>28.0155</ele>
        <time>2017-11-04T10:30:50Z</time>
      </trkpt>
      <trkpt lat="59.8557904" lon="17.5834386">
        <ele>28.9769</ele>
        <time>2017-11-04T10:30:57Z</time>
      </trkpt>
      <trkpt lat="59.8557386" lon="17.5831119">
        <ele>29.4575</ele>
        <time>2017-11-04T10:31:04Z</time>
      </trkpt>
      <trkpt lat="59.8557065" lon="17.5828918">
        <ele>29.4575</ele>
        <time>2017-11-04T10:31:09Z</time>
      </trkpt>
      <trkpt lat="59.8556441" lon="17.5826516">
        <ele>29.9381</ele>
        <time>2017-11-04T10:31:15Z</time>
      </trkpt>
      <trkpt lat="59.8555092" lon="17.5824251">
        <ele>30.8995</ele>
        <time>2017-11-04T10:31:23Z</time>
      </trkpt>
      <trkpt lat="59.8553866" lon="17.5823093">
        <ele>31.3801</ele>
        <time>2017-11-04T10:31:29Z</time>
      </trkpt>
      <trkpt lat="59.8552649" lon="17.5821792">
        <ele>30.8995</ele>
        <time>2017-11-04T10:31:35Z</time>
      </trkpt>
      <trkpt lat="59.8551654" lon="17.582074">
        <ele>31.3801</ele>
        <time>2017-11-04T10:31:40Z</time>
      </trkpt>
      <trkpt lat="59.8550487" lon="17.5819504">
        <ele>31.3801</ele>
        <time>2017-11-04T10:31:46Z</time>
      </trkpt>
      <trkpt lat="59.8549302" lon="17.5818242">
        <ele>30.8995</ele>
        <time>2017-11-04T10:31:52Z</time>
      </trkpt>
      <trkpt lat="59.8547562" lon="17.5816384">
        <ele>29.9381</ele>
        <time>2017-11-04T10:32:01Z</time>
      </trkpt>
      <trkpt lat="59.8545997" lon="17.5814904">
        <ele>29.9381</ele>
        <time>2017-11-04T10:32:09Z</time>
      </trkpt>
      <trkpt lat="59.8544786" lon="17.5813726">
        <ele>30.8995</ele>
        <time>2017-11-04T10:32:15Z</time>
      </trkpt>
      <trkpt lat="59.8543801" lon="17.5812302">
        <ele>31.8607</ele>
        <time>2017-11-04T10:32:21Z</time>
      </trkpt>
      <trkpt lat="59.8542806" lon="17.5810627">
        <ele>32.8223</ele>
        <time>2017-11-04T10:32:27Z</time>
      </trkpt>
      <trkpt lat="59.8541775" lon="17.5808749">
        <ele>34.2642</ele>
        <time>2017-11-04T10:32:33Z</time>
      </trkpt>
      <trkpt lat="59.8540656" lon="17.580634">
        <ele>34.7449</ele>
        <time>2017-11-04T10:32:40Z</time>
      </trkpt>
      <trkpt lat="59.8539817" lon="17.5804086">
        <ele>34.7449</ele>
        <time>2017-11-04T10:32:46Z</time>
      </trkpt>
      <trkpt lat="59.8538984" lon="17.580157">
        <ele>35.2255</ele>
        <time>2017-11-04T10:32:53Z</time>
      </trkpt>
      <trkpt lat="59.8538378" lon="17.5799241">
        <ele>34.7449</ele>
        <time>2017-11-04T10:32:59Z</time>
      </trkpt>
      <trkpt lat="59.8538256" lon="17.5798367">
        <ele>35.7061</ele>
        <time>2017-11-04T10:33:01Z</time>
      </trkpt>
      <trkpt lat="59.8538061" lon="17.5797555">
        <ele>35.7061</ele>
        <time>2017-11-04T10:33:05Z</time>
      </trkpt>
      <trkpt lat="59.8538329" lon="17.5796827">
        <ele>34.7449</ele>
        <time>2017-11-04T10:33:08Z</time>
      </trkpt>
      <trkpt lat="59.853852" lon="17.5796674">
        <ele>34.7449</ele>
        <time>2017-11-04T10:33:09Z</time>
      </trkpt>
      <trkpt lat="59.8539864" lon="17.5795068">
        <ele>34.7449</ele>
        <time>2017-11-04T10:33:17Z</time>
      </trkpt>
      <trkpt lat="59.8540914" lon="17.5793701">
        <ele>34.2642</ele>
        <time>2017-11-04T10:33:24Z</time>
      </trkpt>
      <trkpt lat="59.8541055" lon="17.5793543">
        <ele>34.2642</ele>
        <time>2017-11-04T10:33:25Z</time>
      </trkpt>
      <trkpt lat="59.8540796" lon="17.5793483">
        <ele>33.7834</ele>
        <time>2017-11-04T10:33:30Z</time>
      </trkpt>
      <trkpt lat="59.8540335" lon="17.5794281">
        <ele>34.2642</ele>
        <time>2017-11-04T10:33:33Z</time>
      </trkpt>
      <trkpt lat="59.8539176" lon="17.5795725">
        <ele>32.8223</ele>
        <time>2017-11-04T10:33:39Z</time>
      </trkpt>
      <trkpt lat="59.8538424" lon="17.5796578">
        <ele>32.3416</ele>
        <time>2017-11-04T10:33:43Z</time>
      </trkpt>
      <trkpt lat="59.853746" lon="17.5796009">
        <ele>31.8607</ele>
        <time>2017-11-04T10:33:48Z</time>
      </trkpt>
      <trkpt lat="59.8536836" lon="17.5794672">
        <ele>31.3801</ele>
        <time>2017-11-04T10:33:52Z</time>
      </trkpt>
      <trkpt lat="59.8535963" lon="17.5792173">
        <ele>31.8607</ele>
        <time>2017-11-04T10:33:59Z</time>
      </trkpt>
      <trkpt lat="59.8535282" lon="17.5790049">
        <ele>33.3029</ele>
        <time>2017-11-04T10:34:05Z</time>
      </trkpt>
      <trkpt lat="59.85344" lon="17.57874">
        <ele>33.7834</ele>
        <time>2017-11-04T10:34:12Z</time>
      </trkpt>
      <trkpt lat="59.8533539" lon="17.5786135">
        <ele>33.3029</ele>
        <time>2017-11-04T10:34:17Z</time>
      </trkpt>
      <trkpt lat="59.8532351" lon="17.5786743">
        <ele>32.3416</ele>
        <time>2017-11-04T10:34:22Z</time>
      </trkpt>
      <trkpt lat="59.8531108" lon="17.5788171">
        <ele>30.8995</ele>
        <time>2017-11-04T10:34:28Z</time>
      </trkpt>
      <trkpt lat="59.8529757" lon="17.5789794">
        <ele>28.9769</ele>
        <time>2017-11-04T10:34:35Z</time>
      </trkpt>
      <trkpt lat="59.8528535" lon="17.579123">
        <ele>28.9769</ele>
        <time>2017-11-04T10:34:41Z</time>
      </trkpt>
      <trkpt lat="59.8527302" lon="17.5792621">
        <ele>27.5349</ele>
        <time>2017-11-04T10:34:47Z</time>
      </trkpt>
      <trkpt lat="59.8525805" lon="17.579398">
        <ele>26.5736</ele>
        <time>2017-11-04T10:34:54Z</time>
      </trkpt>
      <trkpt lat="59.8524322" lon="17.5795638">
        <ele>26.0929</ele>
        <time>2017-11-04T10:35:01Z</time>
      </trkpt>
      <trkpt lat="59.8523386" lon="17.5797086">
        <ele>24.651</ele>
        <time>2017-11-04T10:35:06Z</time>
      </trkpt>
      <trkpt lat="59.8522019" lon="17.5798837">
        <ele>23.209</ele>
        <time>2017-11-04T10:35:13Z</time>
      </trkpt>
      <trkpt lat="59.852093" lon="17.5800129">
        <ele>22.7283</ele>
        <time>2017-11-04T10:35:18Z</time>
      </trkpt>
      <trkpt lat="59.851949" lon="17.5801775">
        <ele>21.767</ele>
        <time>2017-11-04T10:35:25Z</time>
      </trkpt>
      <trkpt lat="59.8519309" lon="17.5802538">
        <ele>21.767</ele>
        <time>2017-11-04T10:35:27Z</time>
      </trkpt>
      <trkpt lat="59.8519749" lon="17.5805165">
        <ele>22.2476</ele>
        <time>2017-11-04T10:35:33Z</time>
      </trkpt>
      <trkpt lat="59.8520287" lon="17.5807738">
        <ele>21.767</ele>
        <time>2017-11-04T10:35:39Z</time>
      </trkpt>
      <trkpt lat="59.8520915" lon="17.5810347">
        <ele>21.767</ele>
        <time>2017-11-04T10:35:45Z</time>
      </trkpt>
      <trkpt lat="59.8521532" lon="17.5813854">
        <ele>22.7283</ele>
        <time>2017-11-04T10:35:53Z</time>
      </trkpt>
      <trkpt lat="59.8521608" lon="17.5814296">
        <ele>22.2476</ele>
        <time>2017-11-04T10:35:54Z</time>
      </trkpt>
      <trkpt lat="59.8521767" lon="17.5816094">
        <ele>22.2476</ele>
        <time>2017-11-04T10:35:58Z</time>
      </trkpt>
      <trkpt lat="59.8522537" lon="17.581959">
        <ele>22.2476</ele>
        <time>2017-11-04T10:36:06Z</time>
      </trkpt>
      <trkpt lat="59.8523065" lon="17.5822293">
        <ele>21.767</ele>
        <time>2017-11-04T10:36:12Z</time>
      </trkpt>
      <trkpt lat="59.8523584" lon="17.5824362">
        <ele>21.767</ele>
        <time>2017-11-04T10:36:17Z</time>
      </trkpt>
      <trkpt lat="59.8524364" lon="17.5827785">
        <ele>21.767</ele>
        <time>2017-11-04T10:36:25Z</time>
      </trkpt>
      <trkpt lat="59.8525282" lon="17.583152">
        <ele>20.325</ele>
        <time>2017-11-04T10:36:34Z</time>
      </trkpt>
      <trkpt lat="59.852609" lon="17.5834375">
        <ele>19.8444</ele>
        <time>2017-11-04T10:36:41Z</time>
      </trkpt>
      <trkpt lat="59.8526924" lon="17.5837689">
        <ele>18.8831</ele>
        <time>2017-11-04T10:36:49Z</time>
      </trkpt>
      <trkpt lat="59.8527839" lon="17.5840653">
        <ele>18.8831</ele>
        <time>2017-11-04T10:36:56Z</time>
      </trkpt>
      <trkpt lat="59.8528809" lon="17.5842771">
        <ele>19.3638</ele>
        <time>2017-11-04T10:37:01Z</time>
      </trkpt>
      <trkpt lat="59.8529695" lon="17.5844802">
        <ele>19.8444</ele>
        <time>2017-11-04T10:37:06Z</time>
      </trkpt>
      <trkpt lat="59.8530901" lon="17.5847076">
        <ele>19.8444</ele>
        <time>2017-11-04T10:37:12Z</time>
      </trkpt>
      <trkpt lat="59.8531294" lon="17.5847873">
        <ele>19.8444</ele>
        <time>2017-11-04T10:37:14Z</time>
      </trkpt>
      <trkpt lat="59.8531332" lon="17.5850526">
        <ele>20.8057</ele>
        <time>2017-11-04T10:37:19Z</time>
      </trkpt>
      <trkpt lat="59.8531172" lon="17.5850929">
        <ele>20.8057</ele>
        <time>2017-11-04T10:37:20Z</time>
      </trkpt>
      <trkpt lat="59.8529927" lon="17.5853313">
        <ele>19.8444</ele>
        <time>2017-11-04T10:37:26Z</time>
      </trkpt>
      <trkpt lat="59.8528741" lon="17.5855661">
        <ele>18.4023</ele>
        <time>2017-11-04T10:37:32Z</time>
      </trkpt>
      <trkpt lat="59.8527645" lon="17.585752">
        <ele>17.4412</ele>
        <time>2017-11-04T10:37:37Z</time>
      </trkpt>
      <trkpt lat="59.8527385" lon="17.5857753">
        <ele>16.9604</ele>
        <time>2017-11-04T10:37:38Z</time>
      </trkpt>
      <trkpt lat="59.8525546" lon="17.5856912">
        <ele>15.999</ele>
        <time>2017-11-04T10:37:45Z</time>
      </trkpt>
      <trkpt lat="59.8523857" lon="17.585729">
        <ele>14.0764</ele>
        <time>2017-11-04T10:37:51Z</time>
      </trkpt>
      <trkpt lat="59.8522654" lon="17.585774">
        <ele>12.6344</ele>
        <time>2017-11-04T10:37:56Z</time>
      </trkpt>
      <trkpt lat="59.852136" lon="17.5857281">
        <ele>9.2699</ele>
        <time>2017-11-04T10:38:00Z</time>
      </trkpt>
      <trkpt lat="59.8521351" lon="17.5857633">
        <ele>8.78918</ele>
        <time>2017-11-04T10:38:01Z</time>
      </trkpt>
      <trkpt lat="59.8520008" lon="17.5860157">
        <ele>8.30859</ele>
        <time>2017-11-04T10:38:07Z</time>
      </trkpt>
      <trkpt lat="59.8518449" lon="17.5861475">
        <ele>8.78918</ele>
        <time>2017-11-04T10:38:13Z</time>
      </trkpt>
      <trkpt lat="59.8517139" lon="17.5862834">
        <ele>8.30859</ele>
        <time>2017-11-04T10:38:18Z</time>
      </trkpt>
      <trkpt lat="59.8515946" lon="17.5864137">
        <ele>10.7118</ele>
        <time>2017-11-04T10:38:23Z</time>
      </trkpt>
      <trkpt lat="59.8514874" lon="17.5865238">
        <ele>10.2312</ele>
        <time>2017-11-04T10:38:28Z</time>
      </trkpt>
      <trkpt lat="59.8513465" lon="17.5866475">
        <ele>11.6732</ele>
        <time>2017-11-04T10:38:34Z</time>
      </trkpt>
      <trkpt lat="59.8512222" lon="17.5867593">
        <ele>12.6344</ele>
        <time>2017-11-04T10:38:39Z</time>
      </trkpt>
      <trkpt lat="59.8510789" lon="17.5868952">
        <ele>13.5958</ele>
        <time>2017-11-04T10:38:45Z</time>
      </trkpt>
      <trkpt lat="59.8509328" lon="17.586998">
        <ele>14.0764</ele>
        <time>2017-11-04T10:38:51Z</time>
      </trkpt>
      <trkpt lat="59.8507434" lon="17.5869817">
        <ele>14.557</ele>
        <time>2017-11-04T10:38:58Z</time>
      </trkpt>
      <trkpt lat="59.8505935" lon="17.5868677">
        <ele>15.5184</ele>
        <time>2017-11-04T10:39:04Z</time>
      </trkpt>
      <trkpt lat="59.8504487" lon="17.5867382">
        <ele>17.4412</ele>
        <time>2017-11-04T10:39:10Z</time>
      </trkpt>
      <trkpt lat="59.8502665" lon="17.5866806">
        <ele>17.9218</ele>
        <time>2017-11-04T10:39:17Z</time>
      </trkpt>
      <trkpt lat="59.8501219" lon="17.5866496">
        <ele>17.9218</ele>
        <time>2017-11-04T10:39:23Z</time>
      </trkpt>
      <trkpt lat="59.8499757" lon="17.5867366">
        <ele>16.9604</ele>
        <time>2017-11-04T10:39:29Z</time>
      </trkpt>
      <trkpt lat="59.8498559" lon="17.5868102">
        <ele>15.999</ele>
        <time>2017-11-04T10:39:34Z</time>
      </trkpt>
      <trkpt lat="59.8497479" lon="17.5869128">
        <ele>15.999</ele>
        <time>2017-11-04T10:39:39Z</time>
      </trkpt>
      <trkpt lat="59.8496636" lon="17.5870576">
        <ele>15.999</ele>
        <time>2017-11-04T10:39:44Z</time>
      </trkpt>
      <trkpt lat="59.849567" lon="17.5872627">
        <ele>15.999</ele>
        <time>2017-11-04T10:39:50Z</time>
      </trkpt>
      <trkpt lat="59.849461" lon="17.5874734">
        <ele>17.4412</ele>
        <time>2017-11-04T10:39:56Z</time>
      </trkpt>
      <trkpt lat="59.849378" lon="17.5876568">
        <ele>16.4797</ele>
        <time>2017-11-04T10:40:01Z</time>
      </trkpt>
      <trkpt lat="59.8492765" lon="17.5878279">
        <ele>16.9604</ele>
        <time>2017-11-04T10:40:06Z</time>
      </trkpt>
      <trkpt lat="59.8492367" lon="17.5878811">
        <ele>16.9604</ele>
        <time>2017-11-04T10:40:08Z</time>
      </trkpt>
      <trkpt lat="59.8491404" lon="17.5880351">
        <ele>16.9604</ele>
        <time>2017-11-04T10:40:13Z</time>
      </trkpt>
      <trkpt lat="59.8490378" lon="17.5881731">
        <ele>16.4797</ele>
        <time>2017-11-04T10:40:17Z</time>
      </trkpt>
      <trkpt lat="59.8488688" lon="17.588354">
        <ele>15.999</ele>
        <time>2017-11-04T10:40:24Z</time>
      </trkpt>
      <trkpt lat="59.8487514" lon="17.5884756">
        <ele>16.4797</ele>
        <time>2017-11-04T10:40:29Z</time>
      </trkpt>
      <trkpt lat="59.8486415" lon="17.5885969">
        <ele>17.4412</ele>
        <time>2017-11-04T10:40:34Z</time>
      </trkpt>
      <trkpt lat="59.8484982" lon="17.5888365">
        <ele>19.3638</ele>
        <time>2017-11-04T10:40:41Z</time>
      </trkpt>
      <trkpt lat="59.848439" lon="17.5890427">
        <ele>20.325</ele>
        <time>2017-11-04T10:40:45Z</time>
      </trkpt>
      <trkpt lat="59.8483191" lon="17.5893322">
        <ele>23.209</ele>
        <time>2017-11-04T10:40:52Z</time>
      </trkpt>
      <trkpt lat="59.8481831" lon="17.5894214">
        <ele>23.209</ele>
        <time>2017-11-04T10:40:57Z</time>
      </trkpt>
      <trkpt lat="59.8480345" lon="17.5894308">
        <ele>21.767</ele>
        <time>2017-11-04T10:41:02Z</time>
      </trkpt>
      <trkpt lat="59.8478687" lon="17.5894733">
        <ele>19.8444</ele>
        <time>2017-11-04T10:41:07Z</time>
      </trkpt>
      <trkpt lat="59.8476574" lon="17.5895696">
        <ele>17.4412</ele>
        <time>2017-11-04T10:41:14Z</time>
      </trkpt>
      <trkpt lat="59.8474913" lon="17.5896629">
        <ele>15.5184</ele>
        <time>2017-11-04T10:41:20Z</time>
      </trkpt>
      <trkpt lat="59.8473271" lon="17.5897365">
        <ele>13.1151</ele>
        <time>2017-11-04T10:41:26Z</time>
      </trkpt>
      <trkpt lat="59.8471835" lon="17.5898196">
        <ele>11.6732</ele>
        <time>2017-11-04T10:41:31Z</time>
      </trkpt>
      <trkpt lat="59.847029" lon="17.5899319">
        <ele>11.1925</ele>
        <time>2017-11-04T10:41:36Z</time>
      </trkpt>
      <trkpt lat="59.8469026" lon="17.5900421">
        <ele>9.75061</ele>
        <time>2017-11-04T10:41:41Z</time>
      </trkpt>
      <trkpt lat="59.8467886" lon="17.5901907">
        <ele>9.75061</ele>
        <time>2017-11-04T10:41:46Z</time>
      </trkpt>
      <trkpt lat="59.8466591" lon="17.5904226">
        <ele>11.1925</ele>
        <time>2017-11-04T10:41:52Z</time>
      </trkpt>
      <trkpt lat="59.8464849" lon="17.5905361">
        <ele>12.1538</ele>
        <time>2017-11-04T10:41:58Z</time>
      </trkpt>
      <trkpt lat="59.8463349" lon="17.5906295">
        <ele>14.0764</ele>
        <time>2017-11-04T10:42:03Z</time>
      </trkpt>
      <trkpt lat="59.8461728" lon="17.5907404">
        <ele>13.5958</ele>
        <time>2017-11-04T10:42:09Z</time>
      </trkpt>
      <trkpt lat="59.846054" lon="17.5909442">
        <ele>15.0377</ele>
        <time>2017-11-04T10:42:15Z</time>
      </trkpt>
      <trkpt lat="59.845885" lon="17.5911349">
        <ele>16.9604</ele>
        <time>2017-11-04T10:42:22Z</time>
      </trkpt>
      <trkpt lat="59.845738" lon="17.5912336">
        <ele>17.4412</ele>
        <time>2017-11-04T10:42:28Z</time>
      </trkpt>
      <trkpt lat="59.845618" lon="17.5913424">
        <ele>16.9604</ele>
        <time>2017-11-04T10:42:33Z</time>
      </trkpt>
      <trkpt lat="59.8456276" lon="17.5915936">
        <ele>15.999</ele>
        <time>2017-11-04T10:42:38Z</time>
      </trkpt>
      <trkpt lat="59.8456531" lon="17.5918551">
        <ele>15.0377</ele>
        <time>2017-11-04T10:42:43Z</time>
      </trkpt>
      <trkpt lat="59.8456564" lon="17.5921165">
        <ele>14.557</ele>
        <time>2017-11-04T10:42:48Z</time>
      </trkpt>
      <trkpt lat="59.845706" lon="17.5925582">
        <ele>13.5958</ele>
        <time>2017-11-04T10:42:57Z</time>
      </trkpt>
      <trkpt lat="59.8457475" lon="17.5929249">
        <ele>13.1151</ele>
        <time>2017-11-04T10:43:04Z</time>
      </trkpt>
      <trkpt lat="59.8457967" lon="17.5932796">
        <ele>14.0764</ele>
        <time>2017-11-04T10:43:11Z</time>
      </trkpt>
      <trkpt lat="59.8458334" lon="17.5935873">
        <ele>13.5958</ele>
        <time>2017-11-04T10:43:17Z</time>
      </trkpt>
      <trkpt lat="59.8458754" lon="17.5939002">
        <ele>14.0764</ele>
        <time>2017-11-04T10:43:23Z</time>
      </trkpt>
      <trkpt lat="59.8459207" lon="17.5942141">
        <ele>14.0764</ele>
        <time>2017-11-04T10:43:29Z</time>
      </trkpt>
      <trkpt lat="59.8459523" lon="17.5945268">
        <ele>12.1538</ele>
        <time>2017-11-04T10:43:35Z</time>
      </trkpt>
      <trkpt lat="59.8459941" lon="17.5949527">
        <ele>9.75061</ele>
        <time>2017-11-04T10:43:43Z</time>
      </trkpt>
      <trkpt lat="59.846013" lon="17.5952709">
        <ele>6.38586</ele>
        <time>2017-11-04T10:43:49Z</time>
      </trkpt>
      <trkpt lat="59.8460406" lon="17.5955779">
        <ele>4.46326</ele>
        <time>2017-11-04T10:43:55Z</time>
      </trkpt>
      <trkpt lat="59.8460699" lon="17.5958852">
        <ele>4.46326</ele>
        <time>2017-11-04T10:44:01Z</time>
      </trkpt>
      <trkpt lat="59.8461012" lon="17.5961969">
        <ele>3.50195</ele>
        <time>2017-11-04T10:44:07Z</time>
      </trkpt>
      <trkpt lat="59.8461528" lon="17.5965681">
        <ele>3.98267</ele>
        <time>2017-11-04T10:44:14Z</time>
      </trkpt>
      <trkpt lat="59.8461903" lon="17.5969332">
        <ele>2.06006</ele>
        <time>2017-11-04T10:44:21Z</time>
      </trkpt>
      <trkpt lat="59.8462503" lon="17.5974161">
        <ele>2.54065</ele>
        <time>2017-11-04T10:44:30Z</time>
      </trkpt>
      <trkpt lat="59.8463109" lon="17.5978541">
        <ele>3.02124</ele>
        <time>2017-11-04T10:44:38Z</time>
      </trkpt>
      <trkpt lat="59.846351" lon="17.5982385">
        <ele>3.02124</ele>
        <time>2017-11-04T10:44:45Z</time>
      </trkpt>
      <trkpt lat="59.8463953" lon="17.5985633">
        <ele>3.50195</ele>
        <time>2017-11-04T10:44:51Z</time>
      </trkpt>
      <trkpt lat="59.8464384" lon="17.5988865">
        <ele>3.02124</ele>
        <time>2017-11-04T10:44:57Z</time>
      </trkpt>
      <trkpt lat="59.8465134" lon="17.5993565">
        <ele>5.42456</ele>
        <time>2017-11-04T10:45:06Z</time>
      </trkpt>
      <trkpt lat="59.8465752" lon="17.5997781">
        <ele>6.38586</ele>
        <time>2017-11-04T10:45:14Z</time>
      </trkpt>
      <trkpt lat="59.8466726" lon="17.6003109">
        <ele>10.2312</ele>
        <time>2017-11-04T10:45:24Z</time>
      </trkpt>
      <trkpt lat="59.8467394" lon="17.6006798">
        <ele>13.1151</ele>
        <time>2017-11-04T10:45:31Z</time>
      </trkpt>
      <trkpt lat="59.8468086" lon="17.6011093">
        <ele>14.557</ele>
        <time>2017-11-04T10:45:39Z</time>
      </trkpt>
      <trkpt lat="59.8468616" lon="17.601473">
        <ele>15.0377</ele>
        <time>2017-11-04T10:45:46Z</time>
      </trkpt>
    </trkseg>
  </trk>
</gpx>